<?xml version="1.0" encoding="UTF-8" standalone="no" ?>
<gpx xmlns="http://www.topografix.com/GPX/1/1" xmlns:xsi="http://www.w3.org/2001/XMLSchema-instance" xsi:schemaLocation="http://www.topografix.com/GPX/1/1 http://www.topografix.com/GPX/1/1/gpx.xsd" version="1.1" creator="VisuGPX - https://www.visugpx.com">
  <metadata>
    <name>15428683-Aiguilles de Baulmes - Suchet v1</name>
  </metadata>
  <wpt lat="46.78896" lon="6.46642">
    <ele>1285.2</ele>
    <name><![CDATA[Parking]]></name>
    <desc><![CDATA[]]></desc>
  </wpt>
  <trk>
    <name><![CDATA[15428683-Aiguilles de Baulmes - Suchet v1]]></name>
    <trkseg>
      <trkpt lat="46.78906" lon="6.46626">
        <ele>1301</ele>
        <time>2022-08-24T21:20:03Z</time>
      </trkpt>
      <trkpt lat="46.78894" lon="6.46636">
        <ele>1301</ele>
        <time>2022-08-24T21:20:21Z</time>
      </trkpt>
      <trkpt lat="46.78863" lon="6.46644">
        <ele>1296</ele>
        <time>2022-08-24T21:21:03Z</time>
      </trkpt>
      <trkpt lat="46.78838" lon="6.46654">
        <ele>1294</ele>
        <time>2022-08-24T21:21:38Z</time>
      </trkpt>
      <trkpt lat="46.78824" lon="6.46663">
        <ele>1292</ele>
        <time>2022-08-24T21:21:58Z</time>
      </trkpt>
      <trkpt lat="46.78817" lon="6.46672">
        <ele>1291</ele>
        <time>2022-08-24T21:22:11Z</time>
      </trkpt>
      <trkpt lat="46.78805" lon="6.46701">
        <ele>1290</ele>
        <time>2022-08-24T21:22:42Z</time>
      </trkpt>
      <trkpt lat="46.78787" lon="6.46763">
        <ele>1289</ele>
        <time>2022-08-24T21:23:43Z</time>
      </trkpt>
      <trkpt lat="46.78784" lon="6.46786">
        <ele>1288</ele>
        <time>2022-08-24T21:24:05Z</time>
      </trkpt>
      <trkpt lat="46.78786" lon="6.4683">
        <ele>1292</ele>
        <time>2022-08-24T21:24:45Z</time>
      </trkpt>
      <trkpt lat="46.78787" lon="6.46845">
        <ele>1293</ele>
        <time>2022-08-24T21:24:59Z</time>
      </trkpt>
      <trkpt lat="46.78813" lon="6.46812">
        <ele>1306</ele>
        <time>2022-08-24T21:25:45Z</time>
      </trkpt>
      <trkpt lat="46.78821" lon="6.46855">
        <ele>1314</ele>
        <time>2022-08-24T21:26:26Z</time>
      </trkpt>
      <trkpt lat="46.78836" lon="6.46831">
        <ele>1322</ele>
        <time>2022-08-24T21:26:55Z</time>
      </trkpt>
      <trkpt lat="46.78851" lon="6.46801">
        <ele>1327</ele>
        <time>2022-08-24T21:27:29Z</time>
      </trkpt>
      <trkpt lat="46.78867" lon="6.46738">
        <ele>1325</ele>
        <time>2022-08-24T21:28:31Z</time>
      </trkpt>
      <trkpt lat="46.78874" lon="6.46718">
        <ele>1321</ele>
        <time>2022-08-24T21:28:51Z</time>
      </trkpt>
      <trkpt lat="46.78883" lon="6.4676">
        <ele>1339</ele>
        <time>2022-08-24T21:29:31Z</time>
      </trkpt>
      <trkpt lat="46.78897" lon="6.46744">
        <ele>1342</ele>
        <time>2022-08-24T21:29:55Z</time>
      </trkpt>
      <trkpt lat="46.789" lon="6.46727">
        <ele>1336</ele>
        <time>2022-08-24T21:30:11Z</time>
      </trkpt>
      <trkpt lat="46.78904" lon="6.46733">
        <ele>1340</ele>
        <time>2022-08-24T21:30:19Z</time>
      </trkpt>
      <trkpt lat="46.78907" lon="6.46747">
        <ele>1348</ele>
        <time>2022-08-24T21:30:32Z</time>
      </trkpt>
      <trkpt lat="46.78913" lon="6.46763">
        <ele>1356</ele>
        <time>2022-08-24T21:30:49Z</time>
      </trkpt>
      <trkpt lat="46.78916" lon="6.46751">
        <ele>1355</ele>
        <time>2022-08-24T21:31:00Z</time>
      </trkpt>
      <trkpt lat="46.78923" lon="6.46747">
        <ele>1356</ele>
        <time>2022-08-24T21:31:10Z</time>
      </trkpt>
      <trkpt lat="46.78926" lon="6.46737">
        <ele>1352</ele>
        <time>2022-08-24T21:31:20Z</time>
      </trkpt>
      <trkpt lat="46.78933" lon="6.46733">
        <ele>1353</ele>
        <time>2022-08-24T21:31:30Z</time>
      </trkpt>
      <trkpt lat="46.7894" lon="6.46742">
        <ele>1361</ele>
        <time>2022-08-24T21:31:43Z</time>
      </trkpt>
      <trkpt lat="46.7895" lon="6.4674">
        <ele>1364</ele>
        <time>2022-08-24T21:31:56Z</time>
      </trkpt>
      <trkpt lat="46.78956" lon="6.46747">
        <ele>1370</ele>
        <time>2022-08-24T21:32:07Z</time>
      </trkpt>
      <trkpt lat="46.78962" lon="6.46744">
        <ele>1371</ele>
        <time>2022-08-24T21:32:15Z</time>
      </trkpt>
      <trkpt lat="46.78966" lon="6.4674">
        <ele>1371</ele>
        <time>2022-08-24T21:32:22Z</time>
      </trkpt>
      <trkpt lat="46.78972" lon="6.4675">
        <ele>1379</ele>
        <time>2022-08-24T21:32:34Z</time>
      </trkpt>
      <trkpt lat="46.78978" lon="6.46754">
        <ele>1383</ele>
        <time>2022-08-24T21:32:43Z</time>
      </trkpt>
      <trkpt lat="46.78981" lon="6.46762">
        <ele>1387</ele>
        <time>2022-08-24T21:32:51Z</time>
      </trkpt>
      <trkpt lat="46.78982" lon="6.46772">
        <ele>1391</ele>
        <time>2022-08-24T21:33:00Z</time>
      </trkpt>
      <trkpt lat="46.78993" lon="6.46768">
        <ele>1394</ele>
        <time>2022-08-24T21:33:15Z</time>
      </trkpt>
      <trkpt lat="46.79002" lon="6.46759">
        <ele>1394</ele>
        <time>2022-08-24T21:33:30Z</time>
      </trkpt>
      <trkpt lat="46.79012" lon="6.46758">
        <ele>1395</ele>
        <time>2022-08-24T21:33:43Z</time>
      </trkpt>
      <trkpt lat="46.79022" lon="6.4676">
        <ele>1396</ele>
        <time>2022-08-24T21:33:57Z</time>
      </trkpt>
      <trkpt lat="46.79012" lon="6.46758">
        <ele>1395</ele>
        <time>2022-08-24T21:34:10Z</time>
      </trkpt>
      <trkpt lat="46.7902" lon="6.46781">
        <ele>1404</ele>
        <time>2022-08-24T21:34:34Z</time>
      </trkpt>
      <trkpt lat="46.79038" lon="6.46793">
        <ele>1411</ele>
        <time>2022-08-24T21:35:00Z</time>
      </trkpt>
      <trkpt lat="46.79027" lon="6.46803">
        <ele>1414</ele>
        <time>2022-08-24T21:35:17Z</time>
      </trkpt>
      <trkpt lat="46.79025" lon="6.46814">
        <ele>1418</ele>
        <time>2022-08-24T21:35:28Z</time>
      </trkpt>
      <trkpt lat="46.79028" lon="6.46833">
        <ele>1427</ele>
        <time>2022-08-24T21:35:46Z</time>
      </trkpt>
      <trkpt lat="46.79035" lon="6.46855">
        <ele>1433</ele>
        <time>2022-08-24T21:36:08Z</time>
      </trkpt>
      <trkpt lat="46.79055" lon="6.46884">
        <ele>1446</ele>
        <time>2022-08-24T21:36:45Z</time>
      </trkpt>
      <trkpt lat="46.79058" lon="6.46898">
        <ele>1451</ele>
        <time>2022-08-24T21:36:59Z</time>
      </trkpt>
      <trkpt lat="46.7906" lon="6.46902">
        <ele>1453</ele>
        <time>2022-08-24T21:37:03Z</time>
      </trkpt>
      <trkpt lat="46.79061" lon="6.46913">
        <ele>1457</ele>
        <time>2022-08-24T21:37:13Z</time>
      </trkpt>
      <trkpt lat="46.79064" lon="6.46914">
        <ele>1458</ele>
        <time>2022-08-24T21:37:18Z</time>
      </trkpt>
      <trkpt lat="46.7907" lon="6.46948">
        <ele>1469</ele>
        <time>2022-08-24T21:37:50Z</time>
      </trkpt>
      <trkpt lat="46.79069" lon="6.46956">
        <ele>1470</ele>
        <time>2022-08-24T21:37:57Z</time>
      </trkpt>
      <trkpt lat="46.79076" lon="6.46988">
        <ele>1482</ele>
        <time>2022-08-24T21:38:28Z</time>
      </trkpt>
      <trkpt lat="46.79076" lon="6.46998">
        <ele>1485</ele>
        <time>2022-08-24T21:38:37Z</time>
      </trkpt>
      <trkpt lat="46.79084" lon="6.47014">
        <ele>1490</ele>
        <time>2022-08-24T21:38:55Z</time>
      </trkpt>
      <trkpt lat="46.79083" lon="6.47022">
        <ele>1490</ele>
        <time>2022-08-24T21:39:02Z</time>
      </trkpt>
      <trkpt lat="46.79087" lon="6.47035">
        <ele>1490</ele>
        <time>2022-08-24T21:39:15Z</time>
      </trkpt>
      <trkpt lat="46.79087" lon="6.47041">
        <ele>1491</ele>
        <time>2022-08-24T21:39:21Z</time>
      </trkpt>
      <trkpt lat="46.79093" lon="6.47057">
        <ele>1491</ele>
        <time>2022-08-24T21:39:38Z</time>
      </trkpt>
      <trkpt lat="46.79097" lon="6.47079">
        <ele>1492</ele>
        <time>2022-08-24T21:39:58Z</time>
      </trkpt>
      <trkpt lat="46.79096" lon="6.47089">
        <ele>1493</ele>
        <time>2022-08-24T21:40:08Z</time>
      </trkpt>
      <trkpt lat="46.79098" lon="6.47094">
        <ele>1494</ele>
        <time>2022-08-24T21:40:13Z</time>
      </trkpt>
      <trkpt lat="46.79095" lon="6.47098">
        <ele>1494</ele>
        <time>2022-08-24T21:40:18Z</time>
      </trkpt>
      <trkpt lat="46.79097" lon="6.471">
        <ele>1494</ele>
        <time>2022-08-24T21:40:22Z</time>
      </trkpt>
      <trkpt lat="46.79095" lon="6.47106">
        <ele>1495</ele>
        <time>2022-08-24T21:40:28Z</time>
      </trkpt>
      <trkpt lat="46.79099" lon="6.47129">
        <ele>1498</ele>
        <time>2022-08-24T21:40:49Z</time>
      </trkpt>
      <trkpt lat="46.79106" lon="6.47142">
        <ele>1501</ele>
        <time>2022-08-24T21:41:04Z</time>
      </trkpt>
      <trkpt lat="46.79107" lon="6.47153">
        <ele>1502</ele>
        <time>2022-08-24T21:41:15Z</time>
      </trkpt>
      <trkpt lat="46.79112" lon="6.4716">
        <ele>1504</ele>
        <time>2022-08-24T21:41:24Z</time>
      </trkpt>
      <trkpt lat="46.79116" lon="6.47178">
        <ele>1504</ele>
        <time>2022-08-24T21:41:41Z</time>
      </trkpt>
      <trkpt lat="46.7912" lon="6.47186">
        <ele>1505</ele>
        <time>2022-08-24T21:41:50Z</time>
      </trkpt>
      <trkpt lat="46.79123" lon="6.47198">
        <ele>1504</ele>
        <time>2022-08-24T21:42:02Z</time>
      </trkpt>
      <trkpt lat="46.79128" lon="6.47205">
        <ele>1506</ele>
        <time>2022-08-24T21:42:11Z</time>
      </trkpt>
      <trkpt lat="46.7913" lon="6.47211">
        <ele>1506</ele>
        <time>2022-08-24T21:42:17Z</time>
      </trkpt>
      <trkpt lat="46.7912" lon="6.47232">
        <ele>1501</ele>
        <time>2022-08-24T21:42:41Z</time>
      </trkpt>
      <trkpt lat="46.79127" lon="6.47261">
        <ele>1502</ele>
        <time>2022-08-24T21:43:09Z</time>
      </trkpt>
      <trkpt lat="46.79147" lon="6.47294">
        <ele>1509</ele>
        <time>2022-08-24T21:43:49Z</time>
      </trkpt>
      <trkpt lat="46.79167" lon="6.47336">
        <ele>1518</ele>
        <time>2022-08-24T21:44:36Z</time>
      </trkpt>
      <trkpt lat="46.79174" lon="6.47351">
        <ele>1516</ele>
        <time>2022-08-24T21:44:52Z</time>
      </trkpt>
      <trkpt lat="46.79184" lon="6.47363">
        <ele>1516</ele>
        <time>2022-08-24T21:45:09Z</time>
      </trkpt>
      <trkpt lat="46.79186" lon="6.47369">
        <ele>1516</ele>
        <time>2022-08-24T21:45:16Z</time>
      </trkpt>
      <trkpt lat="46.79201" lon="6.47395">
        <ele>1517</ele>
        <time>2022-08-24T21:45:47Z</time>
      </trkpt>
      <trkpt lat="46.792" lon="6.47407">
        <ele>1516</ele>
        <time>2022-08-24T21:45:58Z</time>
      </trkpt>
      <trkpt lat="46.79207" lon="6.47451">
        <ele>1515</ele>
        <time>2022-08-24T21:46:39Z</time>
      </trkpt>
      <trkpt lat="46.79205" lon="6.47462">
        <ele>1513</ele>
        <time>2022-08-24T21:46:49Z</time>
      </trkpt>
      <trkpt lat="46.79207" lon="6.4747">
        <ele>1513</ele>
        <time>2022-08-24T21:46:57Z</time>
      </trkpt>
      <trkpt lat="46.79221" lon="6.47494">
        <ele>1517</ele>
        <time>2022-08-24T21:47:26Z</time>
      </trkpt>
      <trkpt lat="46.79224" lon="6.47519">
        <ele>1515</ele>
        <time>2022-08-24T21:47:49Z</time>
      </trkpt>
      <trkpt lat="46.79234" lon="6.47531">
        <ele>1517</ele>
        <time>2022-08-24T21:48:06Z</time>
      </trkpt>
      <trkpt lat="46.79244" lon="6.47531">
        <ele>1521</ele>
        <time>2022-08-24T21:48:20Z</time>
      </trkpt>
      <trkpt lat="46.79243" lon="6.47552">
        <ele>1518</ele>
        <time>2022-08-24T21:48:39Z</time>
      </trkpt>
      <trkpt lat="46.79248" lon="6.47575">
        <ele>1517</ele>
        <time>2022-08-24T21:49:01Z</time>
      </trkpt>
      <trkpt lat="46.79256" lon="6.47582">
        <ele>1516</ele>
        <time>2022-08-24T21:49:13Z</time>
      </trkpt>
      <trkpt lat="46.79262" lon="6.47583">
        <ele>1516</ele>
        <time>2022-08-24T21:49:22Z</time>
      </trkpt>
      <trkpt lat="46.79265" lon="6.47587">
        <ele>1515</ele>
        <time>2022-08-24T21:49:27Z</time>
      </trkpt>
      <trkpt lat="46.79267" lon="6.47597">
        <ele>1514</ele>
        <time>2022-08-24T21:49:36Z</time>
      </trkpt>
      <trkpt lat="46.79273" lon="6.47612">
        <ele>1513</ele>
        <time>2022-08-24T21:49:52Z</time>
      </trkpt>
      <trkpt lat="46.79273" lon="6.4762">
        <ele>1512</ele>
        <time>2022-08-24T21:50:00Z</time>
      </trkpt>
      <trkpt lat="46.79273" lon="6.47612">
        <ele>1513</ele>
        <time>2022-08-24T21:50:07Z</time>
      </trkpt>
      <trkpt lat="46.79267" lon="6.47597">
        <ele>1514</ele>
        <time>2022-08-24T21:50:23Z</time>
      </trkpt>
      <trkpt lat="46.79265" lon="6.47587">
        <ele>1515</ele>
        <time>2022-08-24T21:50:32Z</time>
      </trkpt>
      <trkpt lat="46.79262" lon="6.47583">
        <ele>1516</ele>
        <time>2022-08-24T21:50:38Z</time>
      </trkpt>
      <trkpt lat="46.79256" lon="6.47582">
        <ele>1516</ele>
        <time>2022-08-24T21:50:46Z</time>
      </trkpt>
      <trkpt lat="46.79257" lon="6.47599">
        <ele>1515</ele>
        <time>2022-08-24T21:51:01Z</time>
      </trkpt>
      <trkpt lat="46.79253" lon="6.4762">
        <ele>1514</ele>
        <time>2022-08-24T21:51:21Z</time>
      </trkpt>
      <trkpt lat="46.79256" lon="6.47643">
        <ele>1512</ele>
        <time>2022-08-24T21:51:43Z</time>
      </trkpt>
      <trkpt lat="46.79267" lon="6.47667">
        <ele>1510</ele>
        <time>2022-08-24T21:52:09Z</time>
      </trkpt>
      <trkpt lat="46.79269" lon="6.47678">
        <ele>1508</ele>
        <time>2022-08-24T21:52:20Z</time>
      </trkpt>
      <trkpt lat="46.79281" lon="6.477">
        <ele>1506</ele>
        <time>2022-08-24T21:52:45Z</time>
      </trkpt>
      <trkpt lat="46.79281" lon="6.47705">
        <ele>1505</ele>
        <time>2022-08-24T21:52:50Z</time>
      </trkpt>
      <trkpt lat="46.79278" lon="6.47717">
        <ele>1504</ele>
        <time>2022-08-24T21:53:01Z</time>
      </trkpt>
      <trkpt lat="46.79287" lon="6.47731">
        <ele>1503</ele>
        <time>2022-08-24T21:53:19Z</time>
      </trkpt>
      <trkpt lat="46.79288" lon="6.47736">
        <ele>1503</ele>
        <time>2022-08-24T21:53:24Z</time>
      </trkpt>
      <trkpt lat="46.79293" lon="6.47743">
        <ele>1503</ele>
        <time>2022-08-24T21:53:33Z</time>
      </trkpt>
      <trkpt lat="46.79295" lon="6.4775">
        <ele>1503</ele>
        <time>2022-08-24T21:53:40Z</time>
      </trkpt>
      <trkpt lat="46.793" lon="6.47755">
        <ele>1503</ele>
        <time>2022-08-24T21:53:48Z</time>
      </trkpt>
      <trkpt lat="46.79305" lon="6.47781">
        <ele>1500</ele>
        <time>2022-08-24T21:54:13Z</time>
      </trkpt>
      <trkpt lat="46.79318" lon="6.47813">
        <ele>1499</ele>
        <time>2022-08-24T21:54:47Z</time>
      </trkpt>
      <trkpt lat="46.79319" lon="6.47822">
        <ele>1499</ele>
        <time>2022-08-24T21:54:55Z</time>
      </trkpt>
      <trkpt lat="46.79335" lon="6.47852">
        <ele>1499</ele>
        <time>2022-08-24T21:55:30Z</time>
      </trkpt>
      <trkpt lat="46.79346" lon="6.47883">
        <ele>1494</ele>
        <time>2022-08-24T21:56:02Z</time>
      </trkpt>
      <trkpt lat="46.79364" lon="6.47914">
        <ele>1492</ele>
        <time>2022-08-24T21:56:39Z</time>
      </trkpt>
      <trkpt lat="46.79374" lon="6.47947">
        <ele>1492</ele>
        <time>2022-08-24T21:57:12Z</time>
      </trkpt>
      <trkpt lat="46.79383" lon="6.47969">
        <ele>1493</ele>
        <time>2022-08-24T21:57:35Z</time>
      </trkpt>
      <trkpt lat="46.79386" lon="6.47983">
        <ele>1493</ele>
        <time>2022-08-24T21:57:49Z</time>
      </trkpt>
      <trkpt lat="46.79394" lon="6.47996">
        <ele>1495</ele>
        <time>2022-08-24T21:58:05Z</time>
      </trkpt>
      <trkpt lat="46.794" lon="6.48013">
        <ele>1496</ele>
        <time>2022-08-24T21:58:22Z</time>
      </trkpt>
      <trkpt lat="46.79412" lon="6.48036">
        <ele>1500</ele>
        <time>2022-08-24T21:58:48Z</time>
      </trkpt>
      <trkpt lat="46.79418" lon="6.48055">
        <ele>1501</ele>
        <time>2022-08-24T21:59:08Z</time>
      </trkpt>
      <trkpt lat="46.79423" lon="6.48066">
        <ele>1501</ele>
        <time>2022-08-24T21:59:20Z</time>
      </trkpt>
      <trkpt lat="46.79424" lon="6.48078">
        <ele>1501</ele>
        <time>2022-08-24T21:59:31Z</time>
      </trkpt>
      <trkpt lat="46.79436" lon="6.4811">
        <ele>1498</ele>
        <time>2022-08-24T22:00:04Z</time>
      </trkpt>
      <trkpt lat="46.79438" lon="6.4812">
        <ele>1497</ele>
        <time>2022-08-24T22:00:14Z</time>
      </trkpt>
      <trkpt lat="46.79453" lon="6.48148">
        <ele>1497</ele>
        <time>2022-08-24T22:00:46Z</time>
      </trkpt>
      <trkpt lat="46.79463" lon="6.48175">
        <ele>1499</ele>
        <time>2022-08-24T22:01:14Z</time>
      </trkpt>
      <trkpt lat="46.79469" lon="6.48184">
        <ele>1500</ele>
        <time>2022-08-24T22:01:26Z</time>
      </trkpt>
      <trkpt lat="46.79485" lon="6.48223">
        <ele>1503</ele>
        <time>2022-08-24T22:02:07Z</time>
      </trkpt>
      <trkpt lat="46.79489" lon="6.48244">
        <ele>1504</ele>
        <time>2022-08-24T22:02:27Z</time>
      </trkpt>
      <trkpt lat="46.79494" lon="6.48258">
        <ele>1505</ele>
        <time>2022-08-24T22:02:41Z</time>
      </trkpt>
      <trkpt lat="46.79495" lon="6.48267">
        <ele>1504</ele>
        <time>2022-08-24T22:02:50Z</time>
      </trkpt>
      <trkpt lat="46.79499" lon="6.48274">
        <ele>1505</ele>
        <time>2022-08-24T22:02:58Z</time>
      </trkpt>
      <trkpt lat="46.795" lon="6.48282">
        <ele>1504</ele>
        <time>2022-08-24T22:03:05Z</time>
      </trkpt>
      <trkpt lat="46.79498" lon="6.48293">
        <ele>1502</ele>
        <time>2022-08-24T22:03:16Z</time>
      </trkpt>
      <trkpt lat="46.79502" lon="6.48314">
        <ele>1500</ele>
        <time>2022-08-24T22:03:36Z</time>
      </trkpt>
      <trkpt lat="46.79507" lon="6.48328">
        <ele>1498</ele>
        <time>2022-08-24T22:03:50Z</time>
      </trkpt>
      <trkpt lat="46.79509" lon="6.48344">
        <ele>1496</ele>
        <time>2022-08-24T22:04:05Z</time>
      </trkpt>
      <trkpt lat="46.79522" lon="6.4836">
        <ele>1494</ele>
        <time>2022-08-24T22:04:28Z</time>
      </trkpt>
      <trkpt lat="46.79522" lon="6.4837">
        <ele>1493</ele>
        <time>2022-08-24T22:04:37Z</time>
      </trkpt>
      <trkpt lat="46.79525" lon="6.48375">
        <ele>1493</ele>
        <time>2022-08-24T22:04:43Z</time>
      </trkpt>
      <trkpt lat="46.79524" lon="6.48382">
        <ele>1492</ele>
        <time>2022-08-24T22:04:50Z</time>
      </trkpt>
      <trkpt lat="46.79529" lon="6.48391">
        <ele>1491</ele>
        <time>2022-08-24T22:05:00Z</time>
      </trkpt>
      <trkpt lat="46.79531" lon="6.484">
        <ele>1491</ele>
        <time>2022-08-24T22:05:09Z</time>
      </trkpt>
      <trkpt lat="46.79529" lon="6.48412">
        <ele>1489</ele>
        <time>2022-08-24T22:05:20Z</time>
      </trkpt>
      <trkpt lat="46.79531" lon="6.48425">
        <ele>1487</ele>
        <time>2022-08-24T22:05:32Z</time>
      </trkpt>
      <trkpt lat="46.79537" lon="6.48433">
        <ele>1488</ele>
        <time>2022-08-24T22:05:43Z</time>
      </trkpt>
      <trkpt lat="46.79543" lon="6.48445">
        <ele>1487</ele>
        <time>2022-08-24T22:05:57Z</time>
      </trkpt>
      <trkpt lat="46.79541" lon="6.48464">
        <ele>1484</ele>
        <time>2022-08-24T22:06:14Z</time>
      </trkpt>
      <trkpt lat="46.79544" lon="6.48472">
        <ele>1484</ele>
        <time>2022-08-24T22:06:23Z</time>
      </trkpt>
      <trkpt lat="46.79549" lon="6.48473">
        <ele>1486</ele>
        <time>2022-08-24T22:06:29Z</time>
      </trkpt>
      <trkpt lat="46.79555" lon="6.48489">
        <ele>1486</ele>
        <time>2022-08-24T22:06:46Z</time>
      </trkpt>
      <trkpt lat="46.79565" lon="6.48495">
        <ele>1490</ele>
        <time>2022-08-24T22:07:00Z</time>
      </trkpt>
      <trkpt lat="46.79571" lon="6.48506">
        <ele>1491</ele>
        <time>2022-08-24T22:07:13Z</time>
      </trkpt>
      <trkpt lat="46.79573" lon="6.48516">
        <ele>1490</ele>
        <time>2022-08-24T22:07:23Z</time>
      </trkpt>
      <trkpt lat="46.79574" lon="6.48531">
        <ele>1489</ele>
        <time>2022-08-24T22:07:36Z</time>
      </trkpt>
      <trkpt lat="46.79578" lon="6.48537">
        <ele>1490</ele>
        <time>2022-08-24T22:07:44Z</time>
      </trkpt>
      <trkpt lat="46.79581" lon="6.48547">
        <ele>1490</ele>
        <time>2022-08-24T22:07:54Z</time>
      </trkpt>
      <trkpt lat="46.79583" lon="6.48564">
        <ele>1488</ele>
        <time>2022-08-24T22:08:10Z</time>
      </trkpt>
      <trkpt lat="46.79586" lon="6.48571">
        <ele>1488</ele>
        <time>2022-08-24T22:08:17Z</time>
      </trkpt>
      <trkpt lat="46.79608" lon="6.48587">
        <ele>1487</ele>
        <time>2022-08-24T22:08:50Z</time>
      </trkpt>
      <trkpt lat="46.79624" lon="6.48604">
        <ele>1487</ele>
        <time>2022-08-24T22:09:17Z</time>
      </trkpt>
      <trkpt lat="46.79642" lon="6.48643">
        <ele>1488</ele>
        <time>2022-08-24T22:10:00Z</time>
      </trkpt>
      <trkpt lat="46.79653" lon="6.48678">
        <ele>1489</ele>
        <time>2022-08-24T22:10:35Z</time>
      </trkpt>
      <trkpt lat="46.79654" lon="6.48684">
        <ele>1489</ele>
        <time>2022-08-24T22:10:40Z</time>
      </trkpt>
      <trkpt lat="46.79673" lon="6.48728">
        <ele>1490</ele>
        <time>2022-08-24T22:11:28Z</time>
      </trkpt>
      <trkpt lat="46.79683" lon="6.48789">
        <ele>1480</ele>
        <time>2022-08-24T22:12:25Z</time>
      </trkpt>
      <trkpt lat="46.79693" lon="6.48818">
        <ele>1476</ele>
        <time>2022-08-24T22:12:55Z</time>
      </trkpt>
      <trkpt lat="46.79702" lon="6.48828">
        <ele>1477</ele>
        <time>2022-08-24T22:13:10Z</time>
      </trkpt>
      <trkpt lat="46.79713" lon="6.48825">
        <ele>1481</ele>
        <time>2022-08-24T22:13:25Z</time>
      </trkpt>
      <trkpt lat="46.79722" lon="6.48827">
        <ele>1484</ele>
        <time>2022-08-24T22:13:37Z</time>
      </trkpt>
      <trkpt lat="46.7974" lon="6.4884">
        <ele>1489</ele>
        <time>2022-08-24T22:14:04Z</time>
      </trkpt>
      <trkpt lat="46.79749" lon="6.48858">
        <ele>1489</ele>
        <time>2022-08-24T22:14:24Z</time>
      </trkpt>
      <trkpt lat="46.79772" lon="6.48883">
        <ele>1483</ele>
        <time>2022-08-24T22:15:02Z</time>
      </trkpt>
      <trkpt lat="46.79776" lon="6.48893">
        <ele>1482</ele>
        <time>2022-08-24T22:15:13Z</time>
      </trkpt>
      <trkpt lat="46.79787" lon="6.48902">
        <ele>1482</ele>
        <time>2022-08-24T22:15:30Z</time>
      </trkpt>
      <trkpt lat="46.798" lon="6.4892">
        <ele>1481</ele>
        <time>2022-08-24T22:15:54Z</time>
      </trkpt>
      <trkpt lat="46.79809" lon="6.48937">
        <ele>1480</ele>
        <time>2022-08-24T22:16:13Z</time>
      </trkpt>
      <trkpt lat="46.79813" lon="6.48942">
        <ele>1480</ele>
        <time>2022-08-24T22:16:20Z</time>
      </trkpt>
      <trkpt lat="46.79823" lon="6.48962">
        <ele>1479</ele>
        <time>2022-08-24T22:16:43Z</time>
      </trkpt>
      <trkpt lat="46.79829" lon="6.48981">
        <ele>1479</ele>
        <time>2022-08-24T22:17:02Z</time>
      </trkpt>
      <trkpt lat="46.79844" lon="6.49012">
        <ele>1474</ele>
        <time>2022-08-24T22:17:37Z</time>
      </trkpt>
      <trkpt lat="46.79855" lon="6.49031">
        <ele>1469</ele>
        <time>2022-08-24T22:18:00Z</time>
      </trkpt>
      <trkpt lat="46.79879" lon="6.49088">
        <ele>1458</ele>
        <time>2022-08-24T22:19:01Z</time>
      </trkpt>
      <trkpt lat="46.79887" lon="6.49113">
        <ele>1453</ele>
        <time>2022-08-24T22:19:26Z</time>
      </trkpt>
      <trkpt lat="46.79894" lon="6.49139">
        <ele>1449</ele>
        <time>2022-08-24T22:19:51Z</time>
      </trkpt>
      <trkpt lat="46.79907" lon="6.49162">
        <ele>1448</ele>
        <time>2022-08-24T22:20:19Z</time>
      </trkpt>
      <trkpt lat="46.7991" lon="6.4917">
        <ele>1448</ele>
        <time>2022-08-24T22:20:27Z</time>
      </trkpt>
      <trkpt lat="46.79919" lon="6.49189">
        <ele>1447</ele>
        <time>2022-08-24T22:20:48Z</time>
      </trkpt>
      <trkpt lat="46.79928" lon="6.49215">
        <ele>1441</ele>
        <time>2022-08-24T22:21:15Z</time>
      </trkpt>
      <trkpt lat="46.79956" lon="6.49279">
        <ele>1431</ele>
        <time>2022-08-24T22:22:24Z</time>
      </trkpt>
      <trkpt lat="46.79985" lon="6.49341">
        <ele>1430</ele>
        <time>2022-08-24T22:23:33Z</time>
      </trkpt>
      <trkpt lat="46.8001" lon="6.49398">
        <ele>1420</ele>
        <time>2022-08-24T22:24:35Z</time>
      </trkpt>
      <trkpt lat="46.80038" lon="6.49488">
        <ele>1405</ele>
        <time>2022-08-24T22:26:05Z</time>
      </trkpt>
      <trkpt lat="46.80042" lon="6.49496">
        <ele>1405</ele>
        <time>2022-08-24T22:26:14Z</time>
      </trkpt>
      <trkpt lat="46.80046" lon="6.49502">
        <ele>1405</ele>
        <time>2022-08-24T22:26:22Z</time>
      </trkpt>
      <trkpt lat="46.80046" lon="6.4953">
        <ele>1401</ele>
        <time>2022-08-24T22:26:47Z</time>
      </trkpt>
      <trkpt lat="46.80053" lon="6.4956">
        <ele>1399</ele>
        <time>2022-08-24T22:27:16Z</time>
      </trkpt>
      <trkpt lat="46.80062" lon="6.49585">
        <ele>1399</ele>
        <time>2022-08-24T22:27:42Z</time>
      </trkpt>
      <trkpt lat="46.80071" lon="6.49609">
        <ele>1399</ele>
        <time>2022-08-24T22:28:07Z</time>
      </trkpt>
      <trkpt lat="46.80085" lon="6.49661">
        <ele>1398</ele>
        <time>2022-08-24T22:28:58Z</time>
      </trkpt>
      <trkpt lat="46.80099" lon="6.49701">
        <ele>1386</ele>
        <time>2022-08-24T22:29:39Z</time>
      </trkpt>
      <trkpt lat="46.80101" lon="6.49719">
        <ele>1382</ele>
        <time>2022-08-24T22:29:56Z</time>
      </trkpt>
      <trkpt lat="46.80106" lon="6.4974">
        <ele>1378</ele>
        <time>2022-08-24T22:30:16Z</time>
      </trkpt>
      <trkpt lat="46.80109" lon="6.49746">
        <ele>1377</ele>
        <time>2022-08-24T22:30:23Z</time>
      </trkpt>
      <trkpt lat="46.80124" lon="6.4977">
        <ele>1376</ele>
        <time>2022-08-24T22:30:52Z</time>
      </trkpt>
      <trkpt lat="46.80133" lon="6.49811">
        <ele>1374</ele>
        <time>2022-08-24T22:31:32Z</time>
      </trkpt>
      <trkpt lat="46.80142" lon="6.49831">
        <ele>1376</ele>
        <time>2022-08-24T22:31:54Z</time>
      </trkpt>
      <trkpt lat="46.8014" lon="6.49853">
        <ele>1371</ele>
        <time>2022-08-24T22:32:14Z</time>
      </trkpt>
      <trkpt lat="46.80149" lon="6.49876">
        <ele>1371</ele>
        <time>2022-08-24T22:32:38Z</time>
      </trkpt>
      <trkpt lat="46.80153" lon="6.49905">
        <ele>1368</ele>
        <time>2022-08-24T22:33:05Z</time>
      </trkpt>
      <trkpt lat="46.80159" lon="6.4993">
        <ele>1364</ele>
        <time>2022-08-24T22:33:29Z</time>
      </trkpt>
      <trkpt lat="46.8019" lon="6.49992">
        <ele>1350</ele>
        <time>2022-08-24T22:34:39Z</time>
      </trkpt>
      <trkpt lat="46.80194" lon="6.49996">
        <ele>1350</ele>
        <time>2022-08-24T22:34:46Z</time>
      </trkpt>
      <trkpt lat="46.80207" lon="6.49997">
        <ele>1354</ele>
        <time>2022-08-24T22:35:03Z</time>
      </trkpt>
      <trkpt lat="46.80219" lon="6.50015">
        <ele>1353</ele>
        <time>2022-08-24T22:35:26Z</time>
      </trkpt>
      <trkpt lat="46.80224" lon="6.50028">
        <ele>1352</ele>
        <time>2022-08-24T22:35:40Z</time>
      </trkpt>
      <trkpt lat="46.80223" lon="6.50067">
        <ele>1341</ele>
        <time>2022-08-24T22:36:16Z</time>
      </trkpt>
      <trkpt lat="46.80224" lon="6.50074">
        <ele>1340</ele>
        <time>2022-08-24T22:36:22Z</time>
      </trkpt>
      <trkpt lat="46.80226" lon="6.50085">
        <ele>1338</ele>
        <time>2022-08-24T22:36:32Z</time>
      </trkpt>
      <trkpt lat="46.80239" lon="6.50133">
        <ele>1327</ele>
        <time>2022-08-24T22:37:20Z</time>
      </trkpt>
      <trkpt lat="46.80248" lon="6.50154">
        <ele>1325</ele>
        <time>2022-08-24T22:37:42Z</time>
      </trkpt>
      <trkpt lat="46.80267" lon="6.5021">
        <ele>1324</ele>
        <time>2022-08-24T22:38:39Z</time>
      </trkpt>
      <trkpt lat="46.80275" lon="6.50253">
        <ele>1323</ele>
        <time>2022-08-24T22:39:20Z</time>
      </trkpt>
      <trkpt lat="46.80277" lon="6.5026">
        <ele>1323</ele>
        <time>2022-08-24T22:39:27Z</time>
      </trkpt>
      <trkpt lat="46.80278" lon="6.50284">
        <ele>1321</ele>
        <time>2022-08-24T22:39:49Z</time>
      </trkpt>
      <trkpt lat="46.80275" lon="6.50309">
        <ele>1317</ele>
        <time>2022-08-24T22:40:12Z</time>
      </trkpt>
      <trkpt lat="46.80272" lon="6.50318">
        <ele>1314</ele>
        <time>2022-08-24T22:40:21Z</time>
      </trkpt>
      <trkpt lat="46.80271" lon="6.5033">
        <ele>1313</ele>
        <time>2022-08-24T22:40:32Z</time>
      </trkpt>
      <trkpt lat="46.80271" lon="6.50359">
        <ele>1311</ele>
        <time>2022-08-24T22:40:59Z</time>
      </trkpt>
      <trkpt lat="46.8027" lon="6.50366">
        <ele>1310</ele>
        <time>2022-08-24T22:41:05Z</time>
      </trkpt>
      <trkpt lat="46.80272" lon="6.50377">
        <ele>1311</ele>
        <time>2022-08-24T22:41:16Z</time>
      </trkpt>
      <trkpt lat="46.80282" lon="6.50397">
        <ele>1314</ele>
        <time>2022-08-24T22:41:38Z</time>
      </trkpt>
      <trkpt lat="46.80286" lon="6.50408">
        <ele>1316</ele>
        <time>2022-08-24T22:41:50Z</time>
      </trkpt>
      <trkpt lat="46.80292" lon="6.50428">
        <ele>1317</ele>
        <time>2022-08-24T22:42:10Z</time>
      </trkpt>
      <trkpt lat="46.80296" lon="6.50458">
        <ele>1317</ele>
        <time>2022-08-24T22:42:38Z</time>
      </trkpt>
      <trkpt lat="46.80305" lon="6.50482">
        <ele>1319</ele>
        <time>2022-08-24T22:43:03Z</time>
      </trkpt>
      <trkpt lat="46.80319" lon="6.50532">
        <ele>1318</ele>
        <time>2022-08-24T22:43:52Z</time>
      </trkpt>
      <trkpt lat="46.80325" lon="6.50549">
        <ele>1318</ele>
        <time>2022-08-24T22:44:09Z</time>
      </trkpt>
      <trkpt lat="46.80326" lon="6.50589">
        <ele>1311</ele>
        <time>2022-08-24T22:44:46Z</time>
      </trkpt>
      <trkpt lat="46.80328" lon="6.50597">
        <ele>1312</ele>
        <time>2022-08-24T22:44:54Z</time>
      </trkpt>
      <trkpt lat="46.80349" lon="6.50646">
        <ele>1309</ele>
        <time>2022-08-24T22:45:47Z</time>
      </trkpt>
      <trkpt lat="46.80351" lon="6.50661">
        <ele>1308</ele>
        <time>2022-08-24T22:46:01Z</time>
      </trkpt>
      <trkpt lat="46.80362" lon="6.50696">
        <ele>1304</ele>
        <time>2022-08-24T22:46:36Z</time>
      </trkpt>
      <trkpt lat="46.80367" lon="6.50706">
        <ele>1302</ele>
        <time>2022-08-24T22:46:47Z</time>
      </trkpt>
      <trkpt lat="46.80378" lon="6.50723">
        <ele>1300</ele>
        <time>2022-08-24T22:47:08Z</time>
      </trkpt>
      <trkpt lat="46.8038" lon="6.50731">
        <ele>1299</ele>
        <time>2022-08-24T22:47:16Z</time>
      </trkpt>
      <trkpt lat="46.8038" lon="6.50747">
        <ele>1298</ele>
        <time>2022-08-24T22:47:31Z</time>
      </trkpt>
      <trkpt lat="46.80375" lon="6.50757">
        <ele>1297</ele>
        <time>2022-08-24T22:47:42Z</time>
      </trkpt>
      <trkpt lat="46.80356" lon="6.50776">
        <ele>1294</ele>
        <time>2022-08-24T22:48:13Z</time>
      </trkpt>
      <trkpt lat="46.80343" lon="6.50788">
        <ele>1293</ele>
        <time>2022-08-24T22:48:33Z</time>
      </trkpt>
      <trkpt lat="46.80313" lon="6.50811">
        <ele>1279</ele>
        <time>2022-08-24T22:49:19Z</time>
      </trkpt>
      <trkpt lat="46.80307" lon="6.50824">
        <ele>1275</ele>
        <time>2022-08-24T22:49:33Z</time>
      </trkpt>
      <trkpt lat="46.80305" lon="6.50836">
        <ele>1272</ele>
        <time>2022-08-24T22:49:44Z</time>
      </trkpt>
      <trkpt lat="46.80306" lon="6.50845">
        <ele>1272</ele>
        <time>2022-08-24T22:49:52Z</time>
      </trkpt>
      <trkpt lat="46.80304" lon="6.50857">
        <ele>1270</ele>
        <time>2022-08-24T22:50:04Z</time>
      </trkpt>
      <trkpt lat="46.80305" lon="6.50869">
        <ele>1270</ele>
        <time>2022-08-24T22:50:15Z</time>
      </trkpt>
      <trkpt lat="46.80304" lon="6.50884">
        <ele>1268</ele>
        <time>2022-08-24T22:50:29Z</time>
      </trkpt>
      <trkpt lat="46.80313" lon="6.50966">
        <ele>1266</ele>
        <time>2022-08-24T22:51:44Z</time>
      </trkpt>
      <trkpt lat="46.80321" lon="6.51002">
        <ele>1267</ele>
        <time>2022-08-24T22:52:19Z</time>
      </trkpt>
      <trkpt lat="46.8033" lon="6.51033">
        <ele>1271</ele>
        <time>2022-08-24T22:52:50Z</time>
      </trkpt>
      <trkpt lat="46.80338" lon="6.5107">
        <ele>1272</ele>
        <time>2022-08-24T22:53:25Z</time>
      </trkpt>
      <trkpt lat="46.80359" lon="6.51152">
        <ele>1271</ele>
        <time>2022-08-24T22:54:45Z</time>
      </trkpt>
      <trkpt lat="46.80357" lon="6.51174">
        <ele>1270</ele>
        <time>2022-08-24T22:55:05Z</time>
      </trkpt>
      <trkpt lat="46.80362" lon="6.51208">
        <ele>1268</ele>
        <time>2022-08-24T22:55:37Z</time>
      </trkpt>
      <trkpt lat="46.80359" lon="6.51231">
        <ele>1265</ele>
        <time>2022-08-24T22:55:59Z</time>
      </trkpt>
      <trkpt lat="46.80362" lon="6.51314">
        <ele>1258</ele>
        <time>2022-08-24T22:57:15Z</time>
      </trkpt>
      <trkpt lat="46.80356" lon="6.51314">
        <ele>1256</ele>
        <time>2022-08-24T22:57:23Z</time>
      </trkpt>
      <trkpt lat="46.80362" lon="6.51314">
        <ele>1258</ele>
        <time>2022-08-24T22:57:31Z</time>
      </trkpt>
      <trkpt lat="46.8037" lon="6.51378">
        <ele>1257</ele>
        <time>2022-08-24T22:58:30Z</time>
      </trkpt>
      <trkpt lat="46.8038" lon="6.51435">
        <ele>1258</ele>
        <time>2022-08-24T22:59:24Z</time>
      </trkpt>
      <trkpt lat="46.80381" lon="6.5145">
        <ele>1258</ele>
        <time>2022-08-24T22:59:37Z</time>
      </trkpt>
      <trkpt lat="46.80388" lon="6.51486">
        <ele>1259</ele>
        <time>2022-08-24T23:00:12Z</time>
      </trkpt>
      <trkpt lat="46.80388" lon="6.51519">
        <ele>1259</ele>
        <time>2022-08-24T23:00:42Z</time>
      </trkpt>
      <trkpt lat="46.80366" lon="6.51555">
        <ele>1252</ele>
        <time>2022-08-24T23:01:26Z</time>
      </trkpt>
      <trkpt lat="46.80363" lon="6.51573">
        <ele>1252</ele>
        <time>2022-08-24T23:01:43Z</time>
      </trkpt>
      <trkpt lat="46.80363" lon="6.51595">
        <ele>1254</ele>
        <time>2022-08-24T23:02:03Z</time>
      </trkpt>
      <trkpt lat="46.80369" lon="6.51633">
        <ele>1260</ele>
        <time>2022-08-24T23:02:39Z</time>
      </trkpt>
      <trkpt lat="46.80368" lon="6.51656">
        <ele>1262</ele>
        <time>2022-08-24T23:03:00Z</time>
      </trkpt>
      <trkpt lat="46.80366" lon="6.51672">
        <ele>1263</ele>
        <time>2022-08-24T23:03:14Z</time>
      </trkpt>
      <trkpt lat="46.80341" lon="6.51723">
        <ele>1261</ele>
        <time>2022-08-24T23:04:12Z</time>
      </trkpt>
      <trkpt lat="46.8034" lon="6.51737">
        <ele>1261</ele>
        <time>2022-08-24T23:04:25Z</time>
      </trkpt>
      <trkpt lat="46.80345" lon="6.51764">
        <ele>1262</ele>
        <time>2022-08-24T23:04:50Z</time>
      </trkpt>
      <trkpt lat="46.80339" lon="6.51773">
        <ele>1261</ele>
        <time>2022-08-24T23:05:02Z</time>
      </trkpt>
      <trkpt lat="46.80333" lon="6.51773">
        <ele>1260</ele>
        <time>2022-08-24T23:05:10Z</time>
      </trkpt>
      <trkpt lat="46.8033" lon="6.51782">
        <ele>1258</ele>
        <time>2022-08-24T23:05:19Z</time>
      </trkpt>
      <trkpt lat="46.80336" lon="6.51793">
        <ele>1261</ele>
        <time>2022-08-24T23:05:32Z</time>
      </trkpt>
      <trkpt lat="46.80332" lon="6.51808">
        <ele>1259</ele>
        <time>2022-08-24T23:05:46Z</time>
      </trkpt>
      <trkpt lat="46.80321" lon="6.51798">
        <ele>1252</ele>
        <time>2022-08-24T23:06:04Z</time>
      </trkpt>
      <trkpt lat="46.80317" lon="6.51791">
        <ele>1249</ele>
        <time>2022-08-24T23:06:12Z</time>
      </trkpt>
      <trkpt lat="46.80312" lon="6.51809">
        <ele>1245</ele>
        <time>2022-08-24T23:06:30Z</time>
      </trkpt>
      <trkpt lat="46.8031" lon="6.51816">
        <ele>1244</ele>
        <time>2022-08-24T23:06:37Z</time>
      </trkpt>
      <trkpt lat="46.80303" lon="6.51826">
        <ele>1239</ele>
        <time>2022-08-24T23:06:50Z</time>
      </trkpt>
      <trkpt lat="46.80298" lon="6.51793">
        <ele>1236</ele>
        <time>2022-08-24T23:07:21Z</time>
      </trkpt>
      <trkpt lat="46.80283" lon="6.51826">
        <ele>1226</ele>
        <time>2022-08-24T23:07:57Z</time>
      </trkpt>
      <trkpt lat="46.8028" lon="6.51805">
        <ele>1223</ele>
        <time>2022-08-24T23:08:16Z</time>
      </trkpt>
      <trkpt lat="46.80275" lon="6.51788">
        <ele>1220</ele>
        <time>2022-08-24T23:08:33Z</time>
      </trkpt>
      <trkpt lat="46.80271" lon="6.51759">
        <ele>1216</ele>
        <time>2022-08-24T23:09:00Z</time>
      </trkpt>
      <trkpt lat="46.80267" lon="6.51763">
        <ele>1213</ele>
        <time>2022-08-24T23:09:07Z</time>
      </trkpt>
      <trkpt lat="46.80257" lon="6.51779">
        <ele>1207</ele>
        <time>2022-08-24T23:09:27Z</time>
      </trkpt>
      <trkpt lat="46.80254" lon="6.51772">
        <ele>1204</ele>
        <time>2022-08-24T23:09:34Z</time>
      </trkpt>
      <trkpt lat="46.80252" lon="6.51754">
        <ele>1203</ele>
        <time>2022-08-24T23:09:51Z</time>
      </trkpt>
      <trkpt lat="46.80256" lon="6.51717">
        <ele>1196</ele>
        <time>2022-08-24T23:10:25Z</time>
      </trkpt>
      <trkpt lat="46.80245" lon="6.51738">
        <ele>1193</ele>
        <time>2022-08-24T23:10:49Z</time>
      </trkpt>
      <trkpt lat="46.80231" lon="6.51757">
        <ele>1183</ele>
        <time>2022-08-24T23:11:15Z</time>
      </trkpt>
      <trkpt lat="46.80215" lon="6.51794">
        <ele>1170</ele>
        <time>2022-08-24T23:11:55Z</time>
      </trkpt>
      <trkpt lat="46.80209" lon="6.51775">
        <ele>1163</ele>
        <time>2022-08-24T23:12:14Z</time>
      </trkpt>
      <trkpt lat="46.80205" lon="6.51747">
        <ele>1157</ele>
        <time>2022-08-24T23:12:40Z</time>
      </trkpt>
      <trkpt lat="46.80206" lon="6.51723">
        <ele>1153</ele>
        <time>2022-08-24T23:13:02Z</time>
      </trkpt>
      <trkpt lat="46.80207" lon="6.51674">
        <ele>1144</ele>
        <time>2022-08-24T23:13:47Z</time>
      </trkpt>
      <trkpt lat="46.80206" lon="6.51654">
        <ele>1140</ele>
        <time>2022-08-24T23:14:05Z</time>
      </trkpt>
      <trkpt lat="46.80194" lon="6.5167">
        <ele>1133</ele>
        <time>2022-08-24T23:14:27Z</time>
      </trkpt>
      <trkpt lat="46.80186" lon="6.51684">
        <ele>1128</ele>
        <time>2022-08-24T23:14:43Z</time>
      </trkpt>
      <trkpt lat="46.8017" lon="6.51724">
        <ele>1120</ele>
        <time>2022-08-24T23:15:26Z</time>
      </trkpt>
      <trkpt lat="46.80165" lon="6.51752">
        <ele>1119</ele>
        <time>2022-08-24T23:15:52Z</time>
      </trkpt>
      <trkpt lat="46.80143" lon="6.51826">
        <ele>1112</ele>
        <time>2022-08-24T23:17:06Z</time>
      </trkpt>
      <trkpt lat="46.80118" lon="6.51895">
        <ele>1102</ele>
        <time>2022-08-24T23:18:17Z</time>
      </trkpt>
      <trkpt lat="46.8011" lon="6.51912">
        <ele>1097</ele>
        <time>2022-08-24T23:18:36Z</time>
      </trkpt>
      <trkpt lat="46.80093" lon="6.51969">
        <ele>1088</ele>
        <time>2022-08-24T23:19:33Z</time>
      </trkpt>
      <trkpt lat="46.80086" lon="6.51984">
        <ele>1084</ele>
        <time>2022-08-24T23:19:49Z</time>
      </trkpt>
      <trkpt lat="46.80084" lon="6.52014">
        <ele>1086</ele>
        <time>2022-08-24T23:20:17Z</time>
      </trkpt>
      <trkpt lat="46.8008" lon="6.52026">
        <ele>1086</ele>
        <time>2022-08-24T23:20:29Z</time>
      </trkpt>
      <trkpt lat="46.80061" lon="6.52067">
        <ele>1080</ele>
        <time>2022-08-24T23:21:14Z</time>
      </trkpt>
      <trkpt lat="46.80058" lon="6.52078">
        <ele>1079</ele>
        <time>2022-08-24T23:21:25Z</time>
      </trkpt>
      <trkpt lat="46.8005" lon="6.5209">
        <ele>1075</ele>
        <time>2022-08-24T23:21:40Z</time>
      </trkpt>
      <trkpt lat="46.80044" lon="6.52111">
        <ele>1074</ele>
        <time>2022-08-24T23:22:01Z</time>
      </trkpt>
      <trkpt lat="46.80038" lon="6.52121">
        <ele>1071</ele>
        <time>2022-08-24T23:22:13Z</time>
      </trkpt>
      <trkpt lat="46.80034" lon="6.52135">
        <ele>1070</ele>
        <time>2022-08-24T23:22:27Z</time>
      </trkpt>
      <trkpt lat="46.80016" lon="6.52183">
        <ele>1062</ele>
        <time>2022-08-24T23:23:17Z</time>
      </trkpt>
      <trkpt lat="46.80013" lon="6.52201">
        <ele>1061</ele>
        <time>2022-08-24T23:23:34Z</time>
      </trkpt>
      <trkpt lat="46.80015" lon="6.52216">
        <ele>1063</ele>
        <time>2022-08-24T23:23:48Z</time>
      </trkpt>
      <trkpt lat="46.80011" lon="6.52243">
        <ele>1062</ele>
        <time>2022-08-24T23:24:13Z</time>
      </trkpt>
      <trkpt lat="46.80003" lon="6.52257">
        <ele>1058</ele>
        <time>2022-08-24T23:24:30Z</time>
      </trkpt>
      <trkpt lat="46.8" lon="6.52288">
        <ele>1056</ele>
        <time>2022-08-24T23:24:58Z</time>
      </trkpt>
      <trkpt lat="46.79997" lon="6.52299">
        <ele>1056</ele>
        <time>2022-08-24T23:25:09Z</time>
      </trkpt>
      <trkpt lat="46.79991" lon="6.52309">
        <ele>1054</ele>
        <time>2022-08-24T23:25:21Z</time>
      </trkpt>
      <trkpt lat="46.79979" lon="6.5231">
        <ele>1050</ele>
        <time>2022-08-24T23:25:37Z</time>
      </trkpt>
      <trkpt lat="46.79969" lon="6.52305">
        <ele>1047</ele>
        <time>2022-08-24T23:25:52Z</time>
      </trkpt>
      <trkpt lat="46.79965" lon="6.52297">
        <ele>1044</ele>
        <time>2022-08-24T23:26:01Z</time>
      </trkpt>
      <trkpt lat="46.7996" lon="6.52299">
        <ele>1043</ele>
        <time>2022-08-24T23:26:08Z</time>
      </trkpt>
      <trkpt lat="46.79955" lon="6.52297">
        <ele>1041</ele>
        <time>2022-08-24T23:26:14Z</time>
      </trkpt>
      <trkpt lat="46.79951" lon="6.52286">
        <ele>1038</ele>
        <time>2022-08-24T23:26:26Z</time>
      </trkpt>
      <trkpt lat="46.79954" lon="6.52275">
        <ele>1037</ele>
        <time>2022-08-24T23:26:37Z</time>
      </trkpt>
      <trkpt lat="46.79969" lon="6.52225">
        <ele>1037</ele>
        <time>2022-08-24T23:27:27Z</time>
      </trkpt>
      <trkpt lat="46.7997" lon="6.52222">
        <ele>1037</ele>
        <time>2022-08-24T23:27:30Z</time>
      </trkpt>
      <trkpt lat="46.79969" lon="6.52225">
        <ele>1037</ele>
        <time>2022-08-24T23:27:33Z</time>
      </trkpt>
      <trkpt lat="46.79968" lon="6.52216">
        <ele>1035</ele>
        <time>2022-08-24T23:27:41Z</time>
      </trkpt>
      <trkpt lat="46.79967" lon="6.52191">
        <ele>1031</ele>
        <time>2022-08-24T23:28:04Z</time>
      </trkpt>
      <trkpt lat="46.7997" lon="6.52154">
        <ele>1027</ele>
        <time>2022-08-24T23:28:38Z</time>
      </trkpt>
      <trkpt lat="46.79968" lon="6.52134">
        <ele>1024</ele>
        <time>2022-08-24T23:28:56Z</time>
      </trkpt>
      <trkpt lat="46.79963" lon="6.52119">
        <ele>1019</ele>
        <time>2022-08-24T23:29:12Z</time>
      </trkpt>
      <trkpt lat="46.79956" lon="6.52132">
        <ele>1016</ele>
        <time>2022-08-24T23:29:27Z</time>
      </trkpt>
      <trkpt lat="46.79949" lon="6.52154">
        <ele>1014</ele>
        <time>2022-08-24T23:29:49Z</time>
      </trkpt>
      <trkpt lat="46.79934" lon="6.52164">
        <ele>1006</ele>
        <time>2022-08-24T23:30:11Z</time>
      </trkpt>
      <trkpt lat="46.79924" lon="6.52164">
        <ele>999</ele>
        <time>2022-08-24T23:30:24Z</time>
      </trkpt>
      <trkpt lat="46.79918" lon="6.52154">
        <ele>995</ele>
        <time>2022-08-24T23:30:36Z</time>
      </trkpt>
      <trkpt lat="46.799" lon="6.52089">
        <ele>980</ele>
        <time>2022-08-24T23:31:40Z</time>
      </trkpt>
      <trkpt lat="46.79892" lon="6.52042">
        <ele>969</ele>
        <time>2022-08-24T23:32:25Z</time>
      </trkpt>
      <trkpt lat="46.79879" lon="6.51914">
        <ele>943</ele>
        <time>2022-08-24T23:34:23Z</time>
      </trkpt>
      <trkpt lat="46.79876" lon="6.51903">
        <ele>941</ele>
        <time>2022-08-24T23:34:34Z</time>
      </trkpt>
      <trkpt lat="46.79864" lon="6.51815">
        <ele>928</ele>
        <time>2022-08-24T23:35:56Z</time>
      </trkpt>
      <trkpt lat="46.7985" lon="6.5177">
        <ele>920</ele>
        <time>2022-08-24T23:36:41Z</time>
      </trkpt>
      <trkpt lat="46.79831" lon="6.51696">
        <ele>908</ele>
        <time>2022-08-24T23:37:53Z</time>
      </trkpt>
      <trkpt lat="46.79827" lon="6.51674">
        <ele>906</ele>
        <time>2022-08-24T23:38:14Z</time>
      </trkpt>
      <trkpt lat="46.79831" lon="6.51696">
        <ele>908</ele>
        <time>2022-08-24T23:38:35Z</time>
      </trkpt>
      <trkpt lat="46.7982" lon="6.51708">
        <ele>902</ele>
        <time>2022-08-24T23:38:53Z</time>
      </trkpt>
      <trkpt lat="46.79812" lon="6.5173">
        <ele>898</ele>
        <time>2022-08-24T23:39:16Z</time>
      </trkpt>
      <trkpt lat="46.79797" lon="6.5176">
        <ele>890</ele>
        <time>2022-08-24T23:39:50Z</time>
      </trkpt>
      <trkpt lat="46.7979" lon="6.51788">
        <ele>885</ele>
        <time>2022-08-24T23:40:17Z</time>
      </trkpt>
      <trkpt lat="46.79789" lon="6.51782">
        <ele>885</ele>
        <time>2022-08-24T23:40:22Z</time>
      </trkpt>
      <trkpt lat="46.7979" lon="6.51788">
        <ele>885</ele>
        <time>2022-08-24T23:40:28Z</time>
      </trkpt>
      <trkpt lat="46.79786" lon="6.5182">
        <ele>883</ele>
        <time>2022-08-24T23:40:58Z</time>
      </trkpt>
      <trkpt lat="46.79776" lon="6.51855">
        <ele>878</ele>
        <time>2022-08-24T23:41:32Z</time>
      </trkpt>
      <trkpt lat="46.79776" lon="6.51856">
        <ele>878</ele>
        <time>2022-08-24T23:41:33Z</time>
      </trkpt>
      <trkpt lat="46.79776" lon="6.51855">
        <ele>878</ele>
        <time>2022-08-24T23:41:34Z</time>
      </trkpt>
      <trkpt lat="46.79765" lon="6.51819">
        <ele>871</ele>
        <time>2022-08-24T23:42:10Z</time>
      </trkpt>
      <trkpt lat="46.7976" lon="6.51739">
        <ele>869</ele>
        <time>2022-08-24T23:43:24Z</time>
      </trkpt>
      <trkpt lat="46.79756" lon="6.51729">
        <ele>866</ele>
        <time>2022-08-24T23:43:34Z</time>
      </trkpt>
      <trkpt lat="46.79751" lon="6.51723">
        <ele>863</ele>
        <time>2022-08-24T23:43:43Z</time>
      </trkpt>
      <trkpt lat="46.7974" lon="6.51705">
        <ele>858</ele>
        <time>2022-08-24T23:44:05Z</time>
      </trkpt>
      <trkpt lat="46.79736" lon="6.51679">
        <ele>856</ele>
        <time>2022-08-24T23:44:29Z</time>
      </trkpt>
      <trkpt lat="46.79734" lon="6.51661">
        <ele>855</ele>
        <time>2022-08-24T23:44:46Z</time>
      </trkpt>
      <trkpt lat="46.79736" lon="6.51619">
        <ele>854</ele>
        <time>2022-08-24T23:45:24Z</time>
      </trkpt>
      <trkpt lat="46.79735" lon="6.51598">
        <ele>853</ele>
        <time>2022-08-24T23:45:44Z</time>
      </trkpt>
      <trkpt lat="46.79731" lon="6.51598">
        <ele>851</ele>
        <time>2022-08-24T23:45:49Z</time>
      </trkpt>
      <trkpt lat="46.79703" lon="6.51569">
        <ele>840</ele>
        <time>2022-08-24T23:46:35Z</time>
      </trkpt>
      <trkpt lat="46.79696" lon="6.51563">
        <ele>837</ele>
        <time>2022-08-24T23:46:46Z</time>
      </trkpt>
      <trkpt lat="46.79685" lon="6.51555">
        <ele>833</ele>
        <time>2022-08-24T23:47:02Z</time>
      </trkpt>
      <trkpt lat="46.7968" lon="6.51546">
        <ele>831</ele>
        <time>2022-08-24T23:47:13Z</time>
      </trkpt>
      <trkpt lat="46.79671" lon="6.51506">
        <ele>827</ele>
        <time>2022-08-24T23:47:51Z</time>
      </trkpt>
      <trkpt lat="46.79666" lon="6.51494">
        <ele>826</ele>
        <time>2022-08-24T23:48:04Z</time>
      </trkpt>
      <trkpt lat="46.79663" lon="6.51492">
        <ele>826</ele>
        <time>2022-08-24T23:48:08Z</time>
      </trkpt>
      <trkpt lat="46.79655" lon="6.51491">
        <ele>824</ele>
        <time>2022-08-24T23:48:19Z</time>
      </trkpt>
      <trkpt lat="46.79646" lon="6.51494">
        <ele>821</ele>
        <time>2022-08-24T23:48:31Z</time>
      </trkpt>
      <trkpt lat="46.7964" lon="6.51504">
        <ele>818</ele>
        <time>2022-08-24T23:48:43Z</time>
      </trkpt>
      <trkpt lat="46.79622" lon="6.51543">
        <ele>811</ele>
        <time>2022-08-24T23:49:26Z</time>
      </trkpt>
      <trkpt lat="46.79582" lon="6.51618">
        <ele>794</ele>
        <time>2022-08-24T23:50:53Z</time>
      </trkpt>
      <trkpt lat="46.79579" lon="6.5162">
        <ele>793</ele>
        <time>2022-08-24T23:50:58Z</time>
      </trkpt>
      <trkpt lat="46.79554" lon="6.51637">
        <ele>788</ele>
        <time>2022-08-24T23:51:34Z</time>
      </trkpt>
      <trkpt lat="46.79548" lon="6.51648">
        <ele>786</ele>
        <time>2022-08-24T23:51:47Z</time>
      </trkpt>
      <trkpt lat="46.79535" lon="6.51672">
        <ele>782</ele>
        <time>2022-08-24T23:52:15Z</time>
      </trkpt>
      <trkpt lat="46.7951" lon="6.51707">
        <ele>774</ele>
        <time>2022-08-24T23:53:02Z</time>
      </trkpt>
      <trkpt lat="46.79513" lon="6.51727">
        <ele>772</ele>
        <time>2022-08-24T23:53:20Z</time>
      </trkpt>
      <trkpt lat="46.7951" lon="6.51707">
        <ele>774</ele>
        <time>2022-08-24T23:53:39Z</time>
      </trkpt>
      <trkpt lat="46.79505" lon="6.51697">
        <ele>774</ele>
        <time>2022-08-24T23:53:50Z</time>
      </trkpt>
      <trkpt lat="46.795" lon="6.51694">
        <ele>773</ele>
        <time>2022-08-24T23:53:57Z</time>
      </trkpt>
      <trkpt lat="46.79491" lon="6.51694">
        <ele>775</ele>
        <time>2022-08-24T23:54:09Z</time>
      </trkpt>
      <trkpt lat="46.79485" lon="6.51697">
        <ele>776</ele>
        <time>2022-08-24T23:54:18Z</time>
      </trkpt>
      <trkpt lat="46.79477" lon="6.51715">
        <ele>775</ele>
        <time>2022-08-24T23:54:38Z</time>
      </trkpt>
      <trkpt lat="46.7947" lon="6.51755">
        <ele>769</ele>
        <time>2022-08-24T23:55:15Z</time>
      </trkpt>
      <trkpt lat="46.7947" lon="6.51767">
        <ele>766</ele>
        <time>2022-08-24T23:55:26Z</time>
      </trkpt>
      <trkpt lat="46.7947" lon="6.51755">
        <ele>769</ele>
        <time>2022-08-24T23:55:37Z</time>
      </trkpt>
      <trkpt lat="46.79467" lon="6.51756">
        <ele>769</ele>
        <time>2022-08-24T23:55:41Z</time>
      </trkpt>
      <trkpt lat="46.79466" lon="6.51721">
        <ele>776</ele>
        <time>2022-08-24T23:56:13Z</time>
      </trkpt>
      <trkpt lat="46.79464" lon="6.51718">
        <ele>777</ele>
        <time>2022-08-24T23:56:17Z</time>
      </trkpt>
      <trkpt lat="46.7946" lon="6.5172">
        <ele>777</ele>
        <time>2022-08-24T23:56:23Z</time>
      </trkpt>
      <trkpt lat="46.7945" lon="6.51728">
        <ele>777</ele>
        <time>2022-08-24T23:56:38Z</time>
      </trkpt>
      <trkpt lat="46.79438" lon="6.51744">
        <ele>776</ele>
        <time>2022-08-24T23:57:00Z</time>
      </trkpt>
      <trkpt lat="46.79426" lon="6.51756">
        <ele>775</ele>
        <time>2022-08-24T23:57:19Z</time>
      </trkpt>
      <trkpt lat="46.79421" lon="6.51743">
        <ele>779</ele>
        <time>2022-08-24T23:57:33Z</time>
      </trkpt>
      <trkpt lat="46.79417" lon="6.51761">
        <ele>774</ele>
        <time>2022-08-24T23:57:50Z</time>
      </trkpt>
      <trkpt lat="46.794" lon="6.51764">
        <ele>772</ele>
        <time>2022-08-24T23:58:13Z</time>
      </trkpt>
      <trkpt lat="46.79397" lon="6.51762">
        <ele>773</ele>
        <time>2022-08-24T23:58:17Z</time>
      </trkpt>
      <trkpt lat="46.79387" lon="6.51751">
        <ele>777</ele>
        <time>2022-08-24T23:58:34Z</time>
      </trkpt>
      <trkpt lat="46.79399" lon="6.51747">
        <ele>778</ele>
        <time>2022-08-24T23:58:50Z</time>
      </trkpt>
      <trkpt lat="46.79385" lon="6.51736">
        <ele>781</ele>
        <time>2022-08-24T23:59:12Z</time>
      </trkpt>
      <trkpt lat="46.79395" lon="6.51714">
        <ele>788</ele>
        <time>2022-08-24T23:59:36Z</time>
      </trkpt>
      <trkpt lat="46.79383" lon="6.51695">
        <ele>794</ele>
        <time>2022-08-24T23:59:59Z</time>
      </trkpt>
      <trkpt lat="46.7936" lon="6.5168">
        <ele>801</ele>
        <time>2022-08-25T00:00:33Z</time>
      </trkpt>
      <trkpt lat="46.79368" lon="6.51668">
        <ele>804</ele>
        <time>2022-08-25T00:00:48Z</time>
      </trkpt>
      <trkpt lat="46.79363" lon="6.51663">
        <ele>806</ele>
        <time>2022-08-25T00:00:56Z</time>
      </trkpt>
      <trkpt lat="46.793" lon="6.51601">
        <ele>809</ele>
        <time>2022-08-25T00:02:38Z</time>
      </trkpt>
      <trkpt lat="46.79298" lon="6.51557">
        <ele>821</ele>
        <time>2022-08-25T00:03:18Z</time>
      </trkpt>
      <trkpt lat="46.7929" lon="6.51528">
        <ele>828</ele>
        <time>2022-08-25T00:03:47Z</time>
      </trkpt>
      <trkpt lat="46.79275" lon="6.51427">
        <ele>853</ele>
        <time>2022-08-25T00:05:21Z</time>
      </trkpt>
      <trkpt lat="46.79269" lon="6.51386">
        <ele>861</ele>
        <time>2022-08-25T00:05:59Z</time>
      </trkpt>
      <trkpt lat="46.79253" lon="6.51323">
        <ele>875</ele>
        <time>2022-08-25T00:07:01Z</time>
      </trkpt>
      <trkpt lat="46.79245" lon="6.51305">
        <ele>876</ele>
        <time>2022-08-25T00:07:20Z</time>
      </trkpt>
      <trkpt lat="46.79226" lon="6.5129">
        <ele>875</ele>
        <time>2022-08-25T00:07:49Z</time>
      </trkpt>
      <trkpt lat="46.79227" lon="6.51269">
        <ele>878</ele>
        <time>2022-08-25T00:08:08Z</time>
      </trkpt>
      <trkpt lat="46.79223" lon="6.51262">
        <ele>879</ele>
        <time>2022-08-25T00:08:17Z</time>
      </trkpt>
      <trkpt lat="46.79233" lon="6.5124">
        <ele>882</ele>
        <time>2022-08-25T00:08:41Z</time>
      </trkpt>
      <trkpt lat="46.79227" lon="6.51204">
        <ele>887</ele>
        <time>2022-08-25T00:09:15Z</time>
      </trkpt>
      <trkpt lat="46.792" lon="6.51141">
        <ele>901</ele>
        <time>2022-08-25T00:10:23Z</time>
      </trkpt>
      <trkpt lat="46.79178" lon="6.51108">
        <ele>912</ele>
        <time>2022-08-25T00:11:05Z</time>
      </trkpt>
      <trkpt lat="46.79151" lon="6.51042">
        <ele>924</ele>
        <time>2022-08-25T00:12:15Z</time>
      </trkpt>
      <trkpt lat="46.79128" lon="6.50972">
        <ele>936</ele>
        <time>2022-08-25T00:13:26Z</time>
      </trkpt>
      <trkpt lat="46.79124" lon="6.50941">
        <ele>943</ele>
        <time>2022-08-25T00:13:55Z</time>
      </trkpt>
      <trkpt lat="46.79107" lon="6.50952">
        <ele>942</ele>
        <time>2022-08-25T00:14:19Z</time>
      </trkpt>
      <trkpt lat="46.79093" lon="6.50953">
        <ele>944</ele>
        <time>2022-08-25T00:14:38Z</time>
      </trkpt>
      <trkpt lat="46.79096" lon="6.50944">
        <ele>946</ele>
        <time>2022-08-25T00:14:47Z</time>
      </trkpt>
      <trkpt lat="46.79098" lon="6.50931">
        <ele>949</ele>
        <time>2022-08-25T00:14:59Z</time>
      </trkpt>
      <trkpt lat="46.79095" lon="6.50921">
        <ele>952</ele>
        <time>2022-08-25T00:15:09Z</time>
      </trkpt>
      <trkpt lat="46.79052" lon="6.5086">
        <ele>968</ele>
        <time>2022-08-25T00:16:29Z</time>
      </trkpt>
      <trkpt lat="46.79027" lon="6.50818">
        <ele>980</ele>
        <time>2022-08-25T00:17:20Z</time>
      </trkpt>
      <trkpt lat="46.79011" lon="6.50777">
        <ele>995</ele>
        <time>2022-08-25T00:18:03Z</time>
      </trkpt>
      <trkpt lat="46.78999" lon="6.50753">
        <ele>1005</ele>
        <time>2022-08-25T00:18:31Z</time>
      </trkpt>
      <trkpt lat="46.78938" lon="6.50643">
        <ele>1025</ele>
        <time>2022-08-25T00:20:40Z</time>
      </trkpt>
      <trkpt lat="46.78901" lon="6.5048">
        <ele>1060</ele>
        <time>2022-08-25T00:23:17Z</time>
      </trkpt>
      <trkpt lat="46.78892" lon="6.50414">
        <ele>1062</ele>
        <time>2022-08-25T00:24:18Z</time>
      </trkpt>
      <trkpt lat="46.78892" lon="6.50387">
        <ele>1060</ele>
        <time>2022-08-25T00:24:43Z</time>
      </trkpt>
      <trkpt lat="46.78892" lon="6.50363">
        <ele>1059</ele>
        <time>2022-08-25T00:25:05Z</time>
      </trkpt>
      <trkpt lat="46.789" lon="6.50294">
        <ele>1054</ele>
        <time>2022-08-25T00:26:09Z</time>
      </trkpt>
      <trkpt lat="46.78897" lon="6.50254">
        <ele>1050</ele>
        <time>2022-08-25T00:26:46Z</time>
      </trkpt>
      <trkpt lat="46.78893" lon="6.50229">
        <ele>1048</ele>
        <time>2022-08-25T00:27:09Z</time>
      </trkpt>
      <trkpt lat="46.78892" lon="6.50199">
        <ele>1046</ele>
        <time>2022-08-25T00:27:36Z</time>
      </trkpt>
      <trkpt lat="46.78881" lon="6.50175">
        <ele>1043</ele>
        <time>2022-08-25T00:28:03Z</time>
      </trkpt>
      <trkpt lat="46.78877" lon="6.50153">
        <ele>1042</ele>
        <time>2022-08-25T00:28:24Z</time>
      </trkpt>
      <trkpt lat="46.78866" lon="6.50121">
        <ele>1042</ele>
        <time>2022-08-25T00:28:56Z</time>
      </trkpt>
      <trkpt lat="46.78858" lon="6.50094">
        <ele>1042</ele>
        <time>2022-08-25T00:29:23Z</time>
      </trkpt>
      <trkpt lat="46.7885" lon="6.50035">
        <ele>1042</ele>
        <time>2022-08-25T00:30:18Z</time>
      </trkpt>
      <trkpt lat="46.78839" lon="6.49978">
        <ele>1042</ele>
        <time>2022-08-25T00:31:12Z</time>
      </trkpt>
      <trkpt lat="46.78823" lon="6.49915">
        <ele>1041</ele>
        <time>2022-08-25T00:32:14Z</time>
      </trkpt>
      <trkpt lat="46.78806" lon="6.49874">
        <ele>1043</ele>
        <time>2022-08-25T00:32:58Z</time>
      </trkpt>
      <trkpt lat="46.78793" lon="6.4985">
        <ele>1047</ele>
        <time>2022-08-25T00:33:25Z</time>
      </trkpt>
      <trkpt lat="46.78779" lon="6.49824">
        <ele>1053</ele>
        <time>2022-08-25T00:33:56Z</time>
      </trkpt>
      <trkpt lat="46.78773" lon="6.49819">
        <ele>1055</ele>
        <time>2022-08-25T00:34:05Z</time>
      </trkpt>
      <trkpt lat="46.7877" lon="6.49814">
        <ele>1056</ele>
        <time>2022-08-25T00:34:11Z</time>
      </trkpt>
      <trkpt lat="46.78776" lon="6.49793">
        <ele>1060</ele>
        <time>2022-08-25T00:34:32Z</time>
      </trkpt>
      <trkpt lat="46.78743" lon="6.49745">
        <ele>1076</ele>
        <time>2022-08-25T00:35:34Z</time>
      </trkpt>
      <trkpt lat="46.78696" lon="6.4967">
        <ele>1096</ele>
        <time>2022-08-25T00:37:07Z</time>
      </trkpt>
      <trkpt lat="46.78686" lon="6.49663">
        <ele>1100</ele>
        <time>2022-08-25T00:37:22Z</time>
      </trkpt>
      <trkpt lat="46.78674" lon="6.49659">
        <ele>1104</ele>
        <time>2022-08-25T00:37:38Z</time>
      </trkpt>
      <trkpt lat="46.78666" lon="6.49653">
        <ele>1107</ele>
        <time>2022-08-25T00:37:50Z</time>
      </trkpt>
      <trkpt lat="46.78648" lon="6.49621">
        <ele>1118</ele>
        <time>2022-08-25T00:38:28Z</time>
      </trkpt>
      <trkpt lat="46.78635" lon="6.49599">
        <ele>1128</ele>
        <time>2022-08-25T00:38:54Z</time>
      </trkpt>
      <trkpt lat="46.78615" lon="6.49575">
        <ele>1140</ele>
        <time>2022-08-25T00:39:29Z</time>
      </trkpt>
      <trkpt lat="46.78593" lon="6.49542">
        <ele>1154</ele>
        <time>2022-08-25T00:40:11Z</time>
      </trkpt>
      <trkpt lat="46.7857" lon="6.49482">
        <ele>1167</ele>
        <time>2022-08-25T00:41:14Z</time>
      </trkpt>
      <trkpt lat="46.78564" lon="6.49463">
        <ele>1168</ele>
        <time>2022-08-25T00:41:33Z</time>
      </trkpt>
      <trkpt lat="46.78524" lon="6.49376">
        <ele>1183</ele>
        <time>2022-08-25T00:43:09Z</time>
      </trkpt>
      <trkpt lat="46.78509" lon="6.4933">
        <ele>1195</ele>
        <time>2022-08-25T00:43:55Z</time>
      </trkpt>
      <trkpt lat="46.78485" lon="6.49281">
        <ele>1199</ele>
        <time>2022-08-25T00:44:50Z</time>
      </trkpt>
      <trkpt lat="46.78466" lon="6.49247">
        <ele>1202</ele>
        <time>2022-08-25T00:45:30Z</time>
      </trkpt>
      <trkpt lat="46.78456" lon="6.49223">
        <ele>1204</ele>
        <time>2022-08-25T00:45:56Z</time>
      </trkpt>
      <trkpt lat="46.78445" lon="6.49188">
        <ele>1210</ele>
        <time>2022-08-25T00:46:31Z</time>
      </trkpt>
      <trkpt lat="46.78438" lon="6.49174">
        <ele>1213</ele>
        <time>2022-08-25T00:46:47Z</time>
      </trkpt>
      <trkpt lat="46.7842" lon="6.49126">
        <ele>1222</ele>
        <time>2022-08-25T00:47:37Z</time>
      </trkpt>
      <trkpt lat="46.78406" lon="6.49101">
        <ele>1224</ele>
        <time>2022-08-25T00:48:07Z</time>
      </trkpt>
      <trkpt lat="46.78392" lon="6.49066">
        <ele>1226</ele>
        <time>2022-08-25T00:48:44Z</time>
      </trkpt>
      <trkpt lat="46.78375" lon="6.49038">
        <ele>1231</ele>
        <time>2022-08-25T00:49:18Z</time>
      </trkpt>
      <trkpt lat="46.78371" lon="6.49035">
        <ele>1232</ele>
        <time>2022-08-25T00:49:24Z</time>
      </trkpt>
      <trkpt lat="46.78341" lon="6.48959">
        <ele>1249</ele>
        <time>2022-08-25T00:50:44Z</time>
      </trkpt>
      <trkpt lat="46.78309" lon="6.48873">
        <ele>1256</ele>
        <time>2022-08-25T00:52:14Z</time>
      </trkpt>
      <trkpt lat="46.78214" lon="6.48714">
        <ele>1296</ele>
        <time>2022-08-25T00:55:26Z</time>
      </trkpt>
      <trkpt lat="46.78213" lon="6.48683">
        <ele>1301</ele>
        <time>2022-08-25T00:55:55Z</time>
      </trkpt>
      <trkpt lat="46.78179" lon="6.48616">
        <ele>1316</ele>
        <time>2022-08-25T00:57:11Z</time>
      </trkpt>
      <trkpt lat="46.78177" lon="6.48595">
        <ele>1320</ele>
        <time>2022-08-25T00:57:30Z</time>
      </trkpt>
      <trkpt lat="46.78136" lon="6.48517">
        <ele>1329</ele>
        <time>2022-08-25T00:59:00Z</time>
      </trkpt>
      <trkpt lat="46.78126" lon="6.48457">
        <ele>1336</ele>
        <time>2022-08-25T00:59:57Z</time>
      </trkpt>
      <trkpt lat="46.78065" lon="6.48336">
        <ele>1362</ele>
        <time>2022-08-25T01:02:14Z</time>
      </trkpt>
      <trkpt lat="46.78035" lon="6.48301">
        <ele>1364</ele>
        <time>2022-08-25T01:03:05Z</time>
      </trkpt>
      <trkpt lat="46.78018" lon="6.48247">
        <ele>1375</ele>
        <time>2022-08-25T01:03:59Z</time>
      </trkpt>
      <trkpt lat="46.77968" lon="6.4814">
        <ele>1390</ele>
        <time>2022-08-25T01:05:58Z</time>
      </trkpt>
      <trkpt lat="46.7788" lon="6.47966">
        <ele>1422</ele>
        <time>2022-08-25T01:09:15Z</time>
      </trkpt>
      <trkpt lat="46.77658" lon="6.47505">
        <ele>1483</ele>
        <time>2022-08-25T01:17:51Z</time>
      </trkpt>
      <trkpt lat="46.77605" lon="6.47367">
        <ele>1503</ele>
        <time>2022-08-25T01:20:15Z</time>
      </trkpt>
      <trkpt lat="46.7758" lon="6.4732">
        <ele>1515</ele>
        <time>2022-08-25T01:21:10Z</time>
      </trkpt>
      <trkpt lat="46.77556" lon="6.47275">
        <ele>1519</ele>
        <time>2022-08-25T01:22:02Z</time>
      </trkpt>
      <trkpt lat="46.77516" lon="6.47146">
        <ele>1529</ele>
        <time>2022-08-25T01:24:11Z</time>
      </trkpt>
      <trkpt lat="46.7748" lon="6.47063">
        <ele>1540</ele>
        <time>2022-08-25T01:25:41Z</time>
      </trkpt>
      <trkpt lat="46.77466" lon="6.4703">
        <ele>1543</ele>
        <time>2022-08-25T01:26:16Z</time>
      </trkpt>
      <trkpt lat="46.77434" lon="6.47006">
        <ele>1554</ele>
        <time>2022-08-25T01:27:04Z</time>
      </trkpt>
      <trkpt lat="46.77388" lon="6.46978">
        <ele>1557</ele>
        <time>2022-08-25T01:28:11Z</time>
      </trkpt>
      <trkpt lat="46.77366" lon="6.4692">
        <ele>1561</ele>
        <time>2022-08-25T01:29:11Z</time>
      </trkpt>
      <trkpt lat="46.77357" lon="6.46903">
        <ele>1561</ele>
        <time>2022-08-25T01:29:31Z</time>
      </trkpt>
      <trkpt lat="46.77345" lon="6.46871">
        <ele>1563</ele>
        <time>2022-08-25T01:30:04Z</time>
      </trkpt>
      <trkpt lat="46.77341" lon="6.46866">
        <ele>1564</ele>
        <time>2022-08-25T01:30:11Z</time>
      </trkpt>
      <trkpt lat="46.77323" lon="6.46822">
        <ele>1565</ele>
        <time>2022-08-25T01:30:58Z</time>
      </trkpt>
      <trkpt lat="46.77312" lon="6.46781">
        <ele>1562</ele>
        <time>2022-08-25T01:31:39Z</time>
      </trkpt>
      <trkpt lat="46.77296" lon="6.46716">
        <ele>1559</ele>
        <time>2022-08-25T01:32:42Z</time>
      </trkpt>
      <trkpt lat="46.77287" lon="6.46699">
        <ele>1560</ele>
        <time>2022-08-25T01:33:01Z</time>
      </trkpt>
      <trkpt lat="46.77278" lon="6.46685">
        <ele>1562</ele>
        <time>2022-08-25T01:33:19Z</time>
      </trkpt>
      <trkpt lat="46.77266" lon="6.46674">
        <ele>1565</ele>
        <time>2022-08-25T01:33:38Z</time>
      </trkpt>
      <trkpt lat="46.77255" lon="6.46651">
        <ele>1568</ele>
        <time>2022-08-25T01:34:03Z</time>
      </trkpt>
      <trkpt lat="46.77247" lon="6.46645">
        <ele>1569</ele>
        <time>2022-08-25T01:34:15Z</time>
      </trkpt>
      <trkpt lat="46.7724" lon="6.46633">
        <ele>1568</ele>
        <time>2022-08-25T01:34:30Z</time>
      </trkpt>
      <trkpt lat="46.77235" lon="6.4663">
        <ele>1567</ele>
        <time>2022-08-25T01:34:37Z</time>
      </trkpt>
      <trkpt lat="46.77235" lon="6.46612">
        <ele>1567</ele>
        <time>2022-08-25T01:34:53Z</time>
      </trkpt>
      <trkpt lat="46.7723" lon="6.46596">
        <ele>1566</ele>
        <time>2022-08-25T01:35:10Z</time>
      </trkpt>
      <trkpt lat="46.77214" lon="6.46573">
        <ele>1563</ele>
        <time>2022-08-25T01:35:40Z</time>
      </trkpt>
      <trkpt lat="46.77193" lon="6.46548">
        <ele>1561</ele>
        <time>2022-08-25T01:36:16Z</time>
      </trkpt>
      <trkpt lat="46.77169" lon="6.46504">
        <ele>1562</ele>
        <time>2022-08-25T01:37:07Z</time>
      </trkpt>
      <trkpt lat="46.77152" lon="6.46483">
        <ele>1558</ele>
        <time>2022-08-25T01:37:37Z</time>
      </trkpt>
      <trkpt lat="46.7711" lon="6.46441">
        <ele>1550</ele>
        <time>2022-08-25T01:38:45Z</time>
      </trkpt>
      <trkpt lat="46.77078" lon="6.46417">
        <ele>1547</ele>
        <time>2022-08-25T01:39:33Z</time>
      </trkpt>
      <trkpt lat="46.77061" lon="6.46398">
        <ele>1542</ele>
        <time>2022-08-25T01:40:01Z</time>
      </trkpt>
      <trkpt lat="46.77048" lon="6.46385">
        <ele>1539</ele>
        <time>2022-08-25T01:40:22Z</time>
      </trkpt>
      <trkpt lat="46.77045" lon="6.46383">
        <ele>1538</ele>
        <time>2022-08-25T01:40:27Z</time>
      </trkpt>
      <trkpt lat="46.77048" lon="6.46385">
        <ele>1539</ele>
        <time>2022-08-25T01:40:31Z</time>
      </trkpt>
      <trkpt lat="46.77044" lon="6.46366">
        <ele>1537</ele>
        <time>2022-08-25T01:40:49Z</time>
      </trkpt>
      <trkpt lat="46.77034" lon="6.46336">
        <ele>1534</ele>
        <time>2022-08-25T01:41:20Z</time>
      </trkpt>
      <trkpt lat="46.76989" lon="6.46245">
        <ele>1519</ele>
        <time>2022-08-25T01:43:02Z</time>
      </trkpt>
      <trkpt lat="46.76979" lon="6.46233">
        <ele>1518</ele>
        <time>2022-08-25T01:43:20Z</time>
      </trkpt>
      <trkpt lat="46.76972" lon="6.46218">
        <ele>1516</ele>
        <time>2022-08-25T01:43:36Z</time>
      </trkpt>
      <trkpt lat="46.76967" lon="6.46198">
        <ele>1513</ele>
        <time>2022-08-25T01:43:56Z</time>
      </trkpt>
      <trkpt lat="46.76963" lon="6.46176">
        <ele>1509</ele>
        <time>2022-08-25T01:44:17Z</time>
      </trkpt>
      <trkpt lat="46.76966" lon="6.46163">
        <ele>1505</ele>
        <time>2022-08-25T01:44:29Z</time>
      </trkpt>
      <trkpt lat="46.76974" lon="6.46158">
        <ele>1501</ele>
        <time>2022-08-25T01:44:41Z</time>
      </trkpt>
      <trkpt lat="46.77011" lon="6.46163">
        <ele>1493</ele>
        <time>2022-08-25T01:45:30Z</time>
      </trkpt>
      <trkpt lat="46.7704" lon="6.46154">
        <ele>1482</ele>
        <time>2022-08-25T01:46:10Z</time>
      </trkpt>
      <trkpt lat="46.7706" lon="6.46153">
        <ele>1476</ele>
        <time>2022-08-25T01:46:37Z</time>
      </trkpt>
      <trkpt lat="46.7707" lon="6.46155">
        <ele>1474</ele>
        <time>2022-08-25T01:46:50Z</time>
      </trkpt>
      <trkpt lat="46.77089" lon="6.46165">
        <ele>1473</ele>
        <time>2022-08-25T01:47:17Z</time>
      </trkpt>
      <trkpt lat="46.77108" lon="6.46172">
        <ele>1470</ele>
        <time>2022-08-25T01:47:43Z</time>
      </trkpt>
      <trkpt lat="46.7713" lon="6.46176">
        <ele>1464</ele>
        <time>2022-08-25T01:48:13Z</time>
      </trkpt>
      <trkpt lat="46.77169" lon="6.46177">
        <ele>1452</ele>
        <time>2022-08-25T01:49:05Z</time>
      </trkpt>
      <trkpt lat="46.77204" lon="6.46166">
        <ele>1436</ele>
        <time>2022-08-25T01:49:52Z</time>
      </trkpt>
      <trkpt lat="46.7724" lon="6.46169">
        <ele>1427</ele>
        <time>2022-08-25T01:50:41Z</time>
      </trkpt>
      <trkpt lat="46.77259" lon="6.46176">
        <ele>1423</ele>
        <time>2022-08-25T01:51:07Z</time>
      </trkpt>
      <trkpt lat="46.77305" lon="6.46206">
        <ele>1417</ele>
        <time>2022-08-25T01:52:14Z</time>
      </trkpt>
      <trkpt lat="46.77358" lon="6.46231">
        <ele>1402</ele>
        <time>2022-08-25T01:53:28Z</time>
      </trkpt>
      <trkpt lat="46.77426" lon="6.46288">
        <ele>1384</ele>
        <time>2022-08-25T01:55:13Z</time>
      </trkpt>
      <trkpt lat="46.7745" lon="6.46321">
        <ele>1384</ele>
        <time>2022-08-25T01:55:57Z</time>
      </trkpt>
      <trkpt lat="46.77485" lon="6.46365">
        <ele>1381</ele>
        <time>2022-08-25T01:56:59Z</time>
      </trkpt>
      <trkpt lat="46.77494" lon="6.46384">
        <ele>1381</ele>
        <time>2022-08-25T01:57:20Z</time>
      </trkpt>
      <trkpt lat="46.77507" lon="6.46393">
        <ele>1377</ele>
        <time>2022-08-25T01:57:39Z</time>
      </trkpt>
      <trkpt lat="46.77517" lon="6.46406">
        <ele>1375</ele>
        <time>2022-08-25T01:57:57Z</time>
      </trkpt>
      <trkpt lat="46.7753" lon="6.46433">
        <ele>1376</ele>
        <time>2022-08-25T01:58:27Z</time>
      </trkpt>
      <trkpt lat="46.77547" lon="6.46463">
        <ele>1375</ele>
        <time>2022-08-25T01:59:03Z</time>
      </trkpt>
      <trkpt lat="46.7755" lon="6.46481">
        <ele>1377</ele>
        <time>2022-08-25T01:59:19Z</time>
      </trkpt>
      <trkpt lat="46.77552" lon="6.46484">
        <ele>1377</ele>
        <time>2022-08-25T01:59:23Z</time>
      </trkpt>
      <trkpt lat="46.77576" lon="6.46515">
        <ele>1372</ele>
        <time>2022-08-25T02:00:06Z</time>
      </trkpt>
      <trkpt lat="46.77611" lon="6.46581">
        <ele>1371</ele>
        <time>2022-08-25T02:01:22Z</time>
      </trkpt>
      <trkpt lat="46.777" lon="6.46709">
        <ele>1365</ele>
        <time>2022-08-25T02:04:09Z</time>
      </trkpt>
      <trkpt lat="46.77726" lon="6.46737">
        <ele>1361</ele>
        <time>2022-08-25T02:04:52Z</time>
      </trkpt>
      <trkpt lat="46.77768" lon="6.46776">
        <ele>1357</ele>
        <time>2022-08-25T02:05:59Z</time>
      </trkpt>
      <trkpt lat="46.77787" lon="6.46798">
        <ele>1357</ele>
        <time>2022-08-25T02:06:31Z</time>
      </trkpt>
      <trkpt lat="46.77801" lon="6.46812">
        <ele>1356</ele>
        <time>2022-08-25T02:06:54Z</time>
      </trkpt>
      <trkpt lat="46.77888" lon="6.46874">
        <ele>1351</ele>
        <time>2022-08-25T02:09:03Z</time>
      </trkpt>
      <trkpt lat="46.779" lon="6.46893">
        <ele>1350</ele>
        <time>2022-08-25T02:09:26Z</time>
      </trkpt>
      <trkpt lat="46.77977" lon="6.46957">
        <ele>1350</ele>
        <time>2022-08-25T02:11:25Z</time>
      </trkpt>
      <trkpt lat="46.77985" lon="6.46963">
        <ele>1350</ele>
        <time>2022-08-25T02:11:37Z</time>
      </trkpt>
      <trkpt lat="46.78003" lon="6.46946">
        <ele>1352</ele>
        <time>2022-08-25T02:12:05Z</time>
      </trkpt>
      <trkpt lat="46.77999" lon="6.46936">
        <ele>1352</ele>
        <time>2022-08-25T02:12:16Z</time>
      </trkpt>
      <trkpt lat="46.78003" lon="6.46934">
        <ele>1353</ele>
        <time>2022-08-25T02:12:21Z</time>
      </trkpt>
      <trkpt lat="46.78021" lon="6.46943">
        <ele>1357</ele>
        <time>2022-08-25T02:12:47Z</time>
      </trkpt>
      <trkpt lat="46.7804" lon="6.4696">
        <ele>1359</ele>
        <time>2022-08-25T02:13:17Z</time>
      </trkpt>
      <trkpt lat="46.78081" lon="6.46997">
        <ele>1363</ele>
        <time>2022-08-25T02:14:21Z</time>
      </trkpt>
      <trkpt lat="46.78143" lon="6.47074">
        <ele>1357</ele>
        <time>2022-08-25T02:16:09Z</time>
      </trkpt>
      <trkpt lat="46.7816" lon="6.47089">
        <ele>1355</ele>
        <time>2022-08-25T02:16:36Z</time>
      </trkpt>
      <trkpt lat="46.78248" lon="6.47142">
        <ele>1355</ele>
        <time>2022-08-25T02:18:43Z</time>
      </trkpt>
      <trkpt lat="46.78272" lon="6.4717">
        <ele>1349</ele>
        <time>2022-08-25T02:19:24Z</time>
      </trkpt>
      <trkpt lat="46.78294" lon="6.47203">
        <ele>1341</ele>
        <time>2022-08-25T02:20:06Z</time>
      </trkpt>
      <trkpt lat="46.78305" lon="6.47238">
        <ele>1336</ele>
        <time>2022-08-25T02:20:41Z</time>
      </trkpt>
      <trkpt lat="46.78317" lon="6.47259">
        <ele>1334</ele>
        <time>2022-08-25T02:21:06Z</time>
      </trkpt>
      <trkpt lat="46.7845" lon="6.47445">
        <ele>1315</ele>
        <time>2022-08-25T02:25:12Z</time>
      </trkpt>
      <trkpt lat="46.78472" lon="6.47487">
        <ele>1309</ele>
        <time>2022-08-25T02:26:00Z</time>
      </trkpt>
      <trkpt lat="46.7848" lon="6.47528">
        <ele>1305</ele>
        <time>2022-08-25T02:26:39Z</time>
      </trkpt>
      <trkpt lat="46.78479" lon="6.47568">
        <ele>1302</ele>
        <time>2022-08-25T02:27:16Z</time>
      </trkpt>
      <trkpt lat="46.78492" lon="6.47651">
        <ele>1297</ele>
        <time>2022-08-25T02:28:34Z</time>
      </trkpt>
      <trkpt lat="46.78527" lon="6.47716">
        <ele>1291</ele>
        <time>2022-08-25T02:29:49Z</time>
      </trkpt>
      <trkpt lat="46.7853" lon="6.47713">
        <ele>1291</ele>
        <time>2022-08-25T02:29:54Z</time>
      </trkpt>
      <trkpt lat="46.7856" lon="6.4769">
        <ele>1289</ele>
        <time>2022-08-25T02:30:39Z</time>
      </trkpt>
      <trkpt lat="46.78574" lon="6.4769">
        <ele>1287</ele>
        <time>2022-08-25T02:30:58Z</time>
      </trkpt>
      <trkpt lat="46.7859" lon="6.47696">
        <ele>1285</ele>
        <time>2022-08-25T02:31:20Z</time>
      </trkpt>
      <trkpt lat="46.78618" lon="6.47697">
        <ele>1280</ele>
        <time>2022-08-25T02:31:57Z</time>
      </trkpt>
      <trkpt lat="46.78649" lon="6.47692">
        <ele>1275</ele>
        <time>2022-08-25T02:32:39Z</time>
      </trkpt>
      <trkpt lat="46.78683" lon="6.4769">
        <ele>1273</ele>
        <time>2022-08-25T02:33:24Z</time>
      </trkpt>
      <trkpt lat="46.78684" lon="6.47696">
        <ele>1273</ele>
        <time>2022-08-25T02:33:30Z</time>
      </trkpt>
      <trkpt lat="46.78683" lon="6.4769">
        <ele>1273</ele>
        <time>2022-08-25T02:33:36Z</time>
      </trkpt>
      <trkpt lat="46.7869" lon="6.47689">
        <ele>1273</ele>
        <time>2022-08-25T02:33:45Z</time>
      </trkpt>
      <trkpt lat="46.78705" lon="6.47675">
        <ele>1273</ele>
        <time>2022-08-25T02:34:09Z</time>
      </trkpt>
      <trkpt lat="46.78729" lon="6.47641">
        <ele>1274</ele>
        <time>2022-08-25T02:34:53Z</time>
      </trkpt>
      <trkpt lat="46.7876" lon="6.4755">
        <ele>1278</ele>
        <time>2022-08-25T02:36:26Z</time>
      </trkpt>
      <trkpt lat="46.78768" lon="6.47536">
        <ele>1281</ele>
        <time>2022-08-25T02:36:43Z</time>
      </trkpt>
      <trkpt lat="46.78769" lon="6.47533">
        <ele>1281</ele>
        <time>2022-08-25T02:36:46Z</time>
      </trkpt>
      <trkpt lat="46.78787" lon="6.46857">
        <ele>1293</ele>
        <time>2022-08-25T02:47:04Z</time>
      </trkpt>
      <trkpt lat="46.78784" lon="6.46786">
        <ele>1288</ele>
        <time>2022-08-25T02:48:09Z</time>
      </trkpt>
      <trkpt lat="46.78787" lon="6.46763">
        <ele>1289</ele>
        <time>2022-08-25T02:48:31Z</time>
      </trkpt>
      <trkpt lat="46.78805" lon="6.46701">
        <ele>1290</ele>
        <time>2022-08-25T02:49:32Z</time>
      </trkpt>
      <trkpt lat="46.78817" lon="6.46672">
        <ele>1291</ele>
        <time>2022-08-25T02:50:03Z</time>
      </trkpt>
      <trkpt lat="46.78824" lon="6.46663">
        <ele>1292</ele>
        <time>2022-08-25T02:50:16Z</time>
      </trkpt>
      <trkpt lat="46.78838" lon="6.46654">
        <ele>1294</ele>
        <time>2022-08-25T02:50:36Z</time>
      </trkpt>
      <trkpt lat="46.78863" lon="6.46644">
        <ele>1296</ele>
        <time>2022-08-25T02:51:11Z</time>
      </trkpt>
      <trkpt lat="46.78894" lon="6.46636">
        <ele>1301</ele>
        <time>2022-08-25T02:51:53Z</time>
      </trkpt>
      <trkpt lat="46.78906" lon="6.46626">
        <ele>1301</ele>
        <time>2022-08-25T02:52:11Z</time>
      </trkpt>
    </trkseg>
  </trk>
</gpx>